Home > Products > Valid Products > TAF

000
FTUS46 KPQR 231143 CCA
TAFEUG
TAF COR
KEUG 231143Z 2312/2412 VRB05KT P6SM SCT025 OVC035
      TEMPO 2312/2316 -DZRA OVC025
     FM232300 34008KT P6SM BKN035 OVC050
     FM240500 33003KT P6SM OVC015=



000
FTUS46 KPQR 231143 CCA
TAFEUG
TAF COR
KEUG 231143Z 2312/2412 VRB05KT P6SM SCT025 OVC035
      TEMPO 2312/2316 -DZRA OVC025
     FM232300 34008KT P6SM BKN035 OVC050
     FM240500 33003KT P6SM OVC015=



000
FTUS46 KPQR 231143 CCA
TAFEUG
TAF COR
KEUG 231143Z 2312/2412 VRB05KT P6SM SCT025 OVC035
      TEMPO 2312/2316 -DZRA OVC025
     FM232300 34008KT P6SM BKN035 OVC050
     FM240500 33003KT P6SM OVC015=



000
FTUS46 KPQR 231143 CCA
TAFEUG
TAF COR
KEUG 231143Z 2312/2412 VRB05KT P6SM SCT025 OVC035
      TEMPO 2312/2316 -DZRA OVC025
     FM232300 34008KT P6SM BKN035 OVC050
     FM240500 33003KT P6SM OVC015=



000
FTUS46 KPQR 231120
TAFHIO
TAF
KHIO 231120Z 2312/2412 VRB03KT P6SM SCT025 OVC035
      TEMPO 2312/2316 -DZRA BKN025
     FM231900 30004KT P6SM BKN015 OVC025
     FM232300 34007KT P6SM OVC050
     FM240500 30002KT P6SM OVC015=



000
FTUS46 KPQR 231120
TAFSLE
TAF
KSLE 231120Z 2312/2412 VRB03KT P6SM OVC035
      TEMPO 2312/2316 -DZRA OVC025
     FM232000 30003KT P6SM BKN025 OVC045
     FM232300 34007KT P6SM OVC050
     FM240600 30003KT P6SM OVC025=



000
FTUS46 KPQR 231120
TAFAST
TAF
KAST 231120Z 2312/2412 23007KT P6SM SCT012 OVC022
      TEMPO 2312/2316 3SM -DZRA FEW007 BKN012
     FM240400 30007KT P6SM OVC007
     FM240800 29006KT P6SM OVC015=



000
FTUS46 KPQR 231120
TAFPDX
TAF
KPDX 231120Z 2312/2412 VRB03KT P6SM -DZ SCT025 OVC035
      TEMPO 2312/2316 -DZRA BKN025
     FM231900 30006KT P6SM BKN025 OVC045
     FM232300 33007KT P6SM OVC050
     FM240600 32004KT P6SM OVC015=



000
FTUS46 KPQR 231120
TAFTTD
TAF
KTTD 231120Z 2312/2412 VRB03KT P6SM SCT025 OVC035
      TEMPO 2312/2316 -DZRA BKN025
     FM231900 30004KT P6SM BKN015 OVC025
     FM232300 34007KT P6SM OVC050
     FM240600 00000KT P6SM OVC015=



000
FTUS46 KPQR 231120
TAFPDX
TAF
KPDX 231120Z 2312/2412 VRB03KT P6SM -DZ SCT025 OVC035
      TEMPO 2312/2316 -DZRA BKN025
     FM231900 30006KT P6SM BKN025 OVC045
     FM232300 33007KT P6SM OVC050
     FM240600 32004KT P6SM OVC015=



000
FTUS46 KPQR 231120
TAFHIO
TAF
KHIO 231120Z 2312/2412 VRB03KT P6SM SCT025 OVC035
      TEMPO 2312/2316 -DZRA BKN025
     FM231900 30004KT P6SM BKN015 OVC025
     FM232300 34007KT P6SM OVC050
     FM240500 30002KT P6SM OVC015=



000
FTUS46 KPQR 231120
TAFHIO
TAF
KHIO 231120Z 2312/2412 VRB03KT P6SM SCT025 OVC035
      TEMPO 2312/2316 -DZRA BKN025
     FM231900 30004KT P6SM BKN015 OVC025
     FM232300 34007KT P6SM OVC050
     FM240500 30002KT P6SM OVC015=



000
FTUS46 KPQR 231120
TAFEUG
TAF
KEUG 231120Z 2312/2412 VRB05KT P6SM SCT025 OVC035
     FM232300 34008KT P6SM BKN035 OVC050
     FM240500 33003KT P6SM OVC015=



000
FTUS46 KPQR 231120
TAFPDX
TAF
KPDX 231120Z 2312/2412 VRB03KT P6SM -DZ SCT025 OVC035
      TEMPO 2312/2316 -DZRA BKN025
     FM231900 30006KT P6SM BKN025 OVC045
     FM232300 33007KT P6SM OVC050
     FM240600 32004KT P6SM OVC015=



000
FTUS46 KPQR 231120
TAFEUG
TAF
KEUG 231120Z 2312/2412 VRB05KT P6SM SCT025 OVC035
     FM232300 34008KT P6SM BKN035 OVC050
     FM240500 33003KT P6SM OVC015=



000
FTUS46 KPQR 231120
TAFSLE
TAF
KSLE 231120Z 2312/2412 VRB03KT P6SM OVC035
      TEMPO 2312/2316 -DZRA OVC025
     FM232000 30003KT P6SM BKN025 OVC045
     FM232300 34007KT P6SM OVC050
     FM240600 30003KT P6SM OVC025=



000
FTUS46 KPQR 231120
TAFPDX
TAF
KPDX 231120Z 2312/2412 VRB03KT P6SM -DZ SCT025 OVC035
      TEMPO 2312/2316 -DZRA BKN025
     FM231900 30006KT P6SM BKN025 OVC045
     FM232300 33007KT P6SM OVC050
     FM240600 32004KT P6SM OVC015=



000
FTUS46 KPQR 231120
TAFONP
TAF
KONP 231120Z 2312/2412 VRB05KT 3SM -DZ BR BKN003 OVC007
      TEMPO 2312/2316 1 1/2SM -DZ BR OVC002
     FM231900 32007KT P6SM SCT007 OVC018
     FM240200 VRB03KT P6SM OVC007=



000
FTUS46 KPQR 231120
TAFAST
TAF
KAST 231120Z 2312/2412 23007KT P6SM SCT012 OVC022
      TEMPO 2312/2316 3SM -DZRA FEW007 BKN012
     FM240400 30007KT P6SM OVC007
     FM240800 29006KT P6SM OVC015=



000
FTUS46 KPQR 231120
TAFTTD
TAF
KTTD 231120Z 2312/2412 VRB03KT P6SM SCT025 OVC035
      TEMPO 2312/2316 -DZRA BKN025
     FM231900 30004KT P6SM BKN015 OVC025
     FM232300 34007KT P6SM OVC050
     FM240600 00000KT P6SM OVC015=



000
FTUS46 KPQR 231120
TAFSLE
TAF
KSLE 231120Z 2312/2412 VRB03KT P6SM OVC035
      TEMPO 2312/2316 -DZRA OVC025
     FM232000 30003KT P6SM BKN025 OVC045
     FM232300 34007KT P6SM OVC050
     FM240600 30003KT P6SM OVC025=



000
FTUS46 KPQR 231120
TAFHIO
TAF
KHIO 231120Z 2312/2412 VRB03KT P6SM SCT025 OVC035
      TEMPO 2312/2316 -DZRA BKN025
     FM231900 30004KT P6SM BKN015 OVC025
     FM232300 34007KT P6SM OVC050
     FM240500 30002KT P6SM OVC015=



000
FTUS46 KPQR 231120
TAFONP
TAF
KONP 231120Z 2312/2412 VRB05KT 3SM -DZ BR BKN003 OVC007
      TEMPO 2312/2316 1 1/2SM -DZ BR OVC002
     FM231900 32007KT P6SM SCT007 OVC018
     FM240200 VRB03KT P6SM OVC007=



000
FTUS46 KPQR 231120
TAFSLE
TAF
KSLE 231120Z 2312/2412 VRB03KT P6SM OVC035
      TEMPO 2312/2316 -DZRA OVC025
     FM232000 30003KT P6SM BKN025 OVC045
     FM232300 34007KT P6SM OVC050
     FM240600 30003KT P6SM OVC025=



000
FTUS46 KPQR 231120
TAFEUG
TAF
KEUG 231120Z 2312/2412 VRB05KT P6SM SCT025 OVC035
     FM232300 34008KT P6SM BKN035 OVC050
     FM240500 33003KT P6SM OVC015=



000
FTUS46 KPQR 231120
TAFONP
TAF
KONP 231120Z 2312/2412 VRB05KT 3SM -DZ BR BKN003 OVC007
      TEMPO 2312/2316 1 1/2SM -DZ BR OVC002
     FM231900 32007KT P6SM SCT007 OVC018
     FM240200 VRB03KT P6SM OVC007=



000
FTUS46 KPQR 231120
TAFONP
TAF
KONP 231120Z 2312/2412 VRB05KT 3SM -DZ BR BKN003 OVC007
      TEMPO 2312/2316 1 1/2SM -DZ BR OVC002
     FM231900 32007KT P6SM SCT007 OVC018
     FM240200 VRB03KT P6SM OVC007=



000
FTUS46 KPQR 231120
TAFTTD
TAF
KTTD 231120Z 2312/2412 VRB03KT P6SM SCT025 OVC035
      TEMPO 2312/2316 -DZRA BKN025
     FM231900 30004KT P6SM BKN015 OVC025
     FM232300 34007KT P6SM OVC050
     FM240600 00000KT P6SM OVC015=



000
FTUS46 KPQR 231120
TAFAST
TAF
KAST 231120Z 2312/2412 23007KT P6SM SCT012 OVC022
      TEMPO 2312/2316 3SM -DZRA FEW007 BKN012
     FM240400 30007KT P6SM OVC007
     FM240800 29006KT P6SM OVC015=



000
FTUS46 KPQR 231120
TAFTTD
TAF
KTTD 231120Z 2312/2412 VRB03KT P6SM SCT025 OVC035
      TEMPO 2312/2316 -DZRA BKN025
     FM231900 30004KT P6SM BKN015 OVC025
     FM232300 34007KT P6SM OVC050
     FM240600 00000KT P6SM OVC015=



000
FTUS46 KPQR 231120
TAFEUG
TAF
KEUG 231120Z 2312/2412 VRB05KT P6SM SCT025 OVC035
     FM232300 34008KT P6SM BKN035 OVC050
     FM240500 33003KT P6SM OVC015=



000
FTUS46 KPQR 231044 AAA
TAFSLE
TAF AMD
KSLE 231044Z 2311/2406 VRB03KT P6SM OVC035
      TEMPO 2311/2315 -DZRA OVC025
     FM232000 30003KT P6SM BKN025 OVC045
     FM232300 34007KT P6SM OVC050=



000
FTUS46 KPQR 231043 AAA
TAFHIO
TAF AMD
KHIO 231043Z 2311/2406 VRB03KT P6SM SCT025 OVC035
      TEMPO 2311/2315 -DZRA BKN025
     FM231900 30004KT P6SM BKN015 OVC025
     FM232300 34007KT P6SM OVC050=



000
FTUS46 KPQR 231043 AAA
TAFHIO
TAF AMD
KHIO 231043Z 2311/2406 VRB03KT P6SM SCT025 OVC035
      TEMPO 2311/2315 -DZRA BKN025
     FM231900 30004KT P6SM BKN015 OVC025
     FM232300 34007KT P6SM OVC050=



000
FTUS46 KPQR 231043 AAA
TAFHIO
TAF AMD
KHIO 231043Z 2311/2406 VRB03KT P6SM SCT025 OVC035
      TEMPO 2311/2315 -DZRA BKN025
     FM231900 30004KT P6SM BKN015 OVC025
     FM232300 34007KT P6SM OVC050=



000
FTUS46 KPQR 231043 AAA
TAFHIO
TAF AMD
KHIO 231043Z 2311/2406 VRB03KT P6SM SCT025 OVC035
      TEMPO 2311/2315 -DZRA BKN025
     FM231900 30004KT P6SM BKN015 OVC025
     FM232300 34007KT P6SM OVC050=



000
FTUS46 KPQR 231041 AAD
TAFPDX
TAF AMD
KPDX 231041Z 2311/2406 VRB03KT P6SM -DZ SCT025 OVC035
      TEMPO 2311/2315 -DZRA BKN025
     FM231900 30006KT P6SM BKN025 OVC045
     FM232300 33007KT P6SM OVC050=



000
FTUS46 KPQR 231041 AAD
TAFPDX
TAF AMD
KPDX 231041Z 2311/2406 VRB03KT P6SM -DZ SCT025 OVC035
      TEMPO 2311/2315 -DZRA BKN025
     FM231900 30006KT P6SM BKN025 OVC045
     FM232300 33007KT P6SM OVC050=



000
FTUS46 KPQR 231039 AAB
TAFTTD
TAF AMD
KTTD 231039Z 2311/2406 VRB03KT P6SM SCT025 OVC035
      TEMPO 2311/2315 -DZRA BKN025
     FM231900 30004KT P6SM BKN015 OVC025
     FM232300 34007KT P6SM OVC050=



000
FTUS46 KPQR 231039 AAB
TAFTTD
TAF AMD
KTTD 231039Z 2311/2406 VRB03KT P6SM SCT025 OVC035
      TEMPO 2311/2315 -DZRA BKN025
     FM231900 30004KT P6SM BKN015 OVC025
     FM232300 34007KT P6SM OVC050=



000
FTUS46 KPQR 231035 AAC
TAFPDX
TAF AMD
KPDX 231035Z 2311/2406 VRB03KT P6SM -DZ SCT025 OVC035
     FM231900 30006KT P6SM BKN025 OVC045
     FM232300 33007KT P6SM OVC050=



000
FTUS46 KPQR 231035 AAC
TAFPDX
TAF AMD
KPDX 231035Z 2311/2406 VRB03KT P6SM -DZ SCT025 OVC035
     FM231900 30006KT P6SM BKN025 OVC045
     FM232300 33007KT P6SM OVC050=



000
FTUS46 KPQR 231033 AAC
TAFEUG
TAF AMD
KEUG 231033Z 2311/2406 VRB05KT P6SM SCT025 OVC035
     FM232300 34008KT P6SM BKN035 OVC050=



000
FTUS46 KPQR 231033 AAC
TAFEUG
TAF AMD
KEUG 231033Z 2311/2406 VRB05KT P6SM SCT025 OVC035
     FM232300 34008KT P6SM BKN035 OVC050=



000
FTUS46 KPQR 231029 AAB
TAFONP
TAF AMD
KONP 231029Z 2310/2406 VRB05KT 3SM -DZ BR BKN003 OVC007
      TEMPO 2310/2314 1 1/2SM -DZ BR OVC002
     FM231400 32003KT P6SM SCT007 OVC018
     FM232000 32008KT P6SM BKN015 OVC025=



000
FTUS46 KPQR 231026 CCA
TAFAST
TAF COR
KAST 231026Z 2310/2406 23007KT 4SM -DZRA BR SCT012 OVC022
     FM231500 28003KT P6SM SCT007 OVC015
     FM231900 31008KT P6SM OVC025=



000
FTUS46 KPQR 231026 CCA
TAFAST
TAF COR
KAST 231026Z 2310/2406 23007KT 4SM -DZRA BR SCT012 OVC022
     FM231500 28003KT P6SM SCT007 OVC015
     FM231900 31008KT P6SM OVC025=



000
FTUS46 KPQR 231026 CCA
TAFAST
TAF COR
KAST 231026Z 2310/2406 23007KT 4SM -DZRA BR SCT012 OVC022
     FM231500 28003KT P6SM SCT007 OVC015
     FM231900 31008KT P6SM OVC025=



000
FTUS46 KPQR 231025 AAB
TAFAST
TAF AMD
KAST 231025Z 2310/2406 23007KT 4SM -DZRA BR BKN012 OVC022
     FM231500 28003KT P6SM SCT007 OVC015
     FM231900 31008KT P6SM OVC025=



000
FTUS46 KPQR 231025 AAB
TAFAST
TAF AMD
KAST 231025Z 2310/2406 23007KT 4SM -DZRA BR BKN012 OVC022
     FM231500 28003KT P6SM SCT007 OVC015
     FM231900 31008KT P6SM OVC025=



000
FTUS46 KPQR 230852 AAB
TAFPDX
TAF AMD
KPDX 230852Z 2309/2406 32005KT P6SM SCT015 OVC030
     FM231100 27003KT P6SM -DZ SCT015 OVC025
     FM231900 30006KT P6SM BKN025 OVC045
     FM232300 33007KT P6SM OVC050=



000
FTUS46 KPQR 230852 AAB
TAFPDX
TAF AMD
KPDX 230852Z 2309/2406 32005KT P6SM SCT015 OVC030
     FM231100 27003KT P6SM -DZ SCT015 OVC025
     FM231900 30006KT P6SM BKN025 OVC045
     FM232300 33007KT P6SM OVC050=



000
FTUS46 KPQR 230852 AAB
TAFPDX
TAF AMD
KPDX 230852Z 2309/2406 32005KT P6SM SCT015 OVC030
     FM231100 27003KT P6SM -DZ SCT015 OVC025
     FM231900 30006KT P6SM BKN025 OVC045
     FM232300 33007KT P6SM OVC050=



000
FTUS46 KPQR 230852 AAB
TAFPDX
TAF AMD
KPDX 230852Z 2309/2406 32005KT P6SM SCT015 OVC030
     FM231100 27003KT P6SM -DZ SCT015 OVC025
     FM231900 30006KT P6SM BKN025 OVC045
     FM232300 33007KT P6SM OVC050=



000
FTUS46 KPQR 230848 AAB
TAFEUG
TAF AMD
KEUG 230848Z 2309/2406 23005KT P6SM OVC025
      TEMPO 2309/2311 VRB03KT -RA OVC015
     FM232000 32005KT P6SM BKN018 OVC025
     FM232300 34008KT P6SM BKN035 OVC050=



000
FTUS46 KPQR 230848 AAB
TAFEUG
TAF AMD
KEUG 230848Z 2309/2406 23005KT P6SM OVC025
      TEMPO 2309/2311 VRB03KT -RA OVC015
     FM232000 32005KT P6SM BKN018 OVC025
     FM232300 34008KT P6SM BKN035 OVC050=



000
FTUS46 KPQR 230848 AAB
TAFEUG
TAF AMD
KEUG 230848Z 2309/2406 23005KT P6SM OVC025
      TEMPO 2309/2311 VRB03KT -RA OVC015
     FM232000 32005KT P6SM BKN018 OVC025
     FM232300 34008KT P6SM BKN035 OVC050=



000
FTUS46 KPQR 230848 AAB
TAFEUG
TAF AMD
KEUG 230848Z 2309/2406 23005KT P6SM OVC025
      TEMPO 2309/2311 VRB03KT -RA OVC015
     FM232000 32005KT P6SM BKN018 OVC025
     FM232300 34008KT P6SM BKN035 OVC050=



000
FTUS46 KPQR 230756 AAA
TAFEUG
TAF AMD
KEUG 230756Z 2308/2406 23005KT P6SM OVC025
     FM230900 VRB03KT P6SM OVC015
      TEMPO 2311/2315 6SM -DZ
     FM232000 32005KT P6SM BKN018 OVC025
     FM232300 34008KT P6SM BKN035 OVC050=



000
FTUS46 KPQR 230756 AAA
TAFEUG
TAF AMD
KEUG 230756Z 2308/2406 23005KT P6SM OVC025
     FM230900 VRB03KT P6SM OVC015
      TEMPO 2311/2315 6SM -DZ
     FM232000 32005KT P6SM BKN018 OVC025
     FM232300 34008KT P6SM BKN035 OVC050=



000
FTUS46 KPQR 230756 AAA
TAFEUG
TAF AMD
KEUG 230756Z 2308/2406 23005KT P6SM OVC025
     FM230900 VRB03KT P6SM OVC015
      TEMPO 2311/2315 6SM -DZ
     FM232000 32005KT P6SM BKN018 OVC025
     FM232300 34008KT P6SM BKN035 OVC050=



000
FTUS46 KPQR 230754 AAA
TAFTTD
TAF AMD
KTTD 230754Z 2308/2406 VRB03KT P6SM OVC025
      TEMPO 2312/2315 6SM -DZ
     FM231900 30004KT P6SM BKN015 OVC025
     FM232300 34007KT P6SM OVC050=



000
FTUS46 KPQR 230754 AAA
TAFTTD
TAF AMD
KTTD 230754Z 2308/2406 VRB03KT P6SM OVC025
      TEMPO 2312/2315 6SM -DZ
     FM231900 30004KT P6SM BKN015 OVC025
     FM232300 34007KT P6SM OVC050=



000
FTUS46 KPQR 230753 AAA
TAFPDX
TAF AMD
KPDX 230753Z 2308/2406 32005KT P6SM SCT015 OVC030
     FM231100 27003KT P6SM SCT009 OVC015
      TEMPO 2311/2315 6SM -DZ
     FM231900 30006KT P6SM BKN025 OVC045
     FM232300 33007KT P6SM OVC050=



000
FTUS46 KPQR 230753 AAA
TAFPDX
TAF AMD
KPDX 230753Z 2308/2406 32005KT P6SM SCT015 OVC030
     FM231100 27003KT P6SM SCT009 OVC015
      TEMPO 2311/2315 6SM -DZ
     FM231900 30006KT P6SM BKN025 OVC045
     FM232300 33007KT P6SM OVC050=



000
FTUS46 KPQR 230752 AAA
TAFAST
TAF AMD
KAST 230752Z 2308/2406 23007KT P6SM BKN010 OVC020
     FM230900 27005KT 3SM -RADZ BR BKN006 OVC012
     FM231500 28003KT P6SM SCT007 OVC015
     FM231900 31008KT P6SM OVC025=



000
FTUS46 KPQR 230752 AAA
TAFAST
TAF AMD
KAST 230752Z 2308/2406 23007KT P6SM BKN010 OVC020
     FM230900 27005KT 3SM -RADZ BR BKN006 OVC012
     FM231500 28003KT P6SM SCT007 OVC015
     FM231900 31008KT P6SM OVC025=



000
FTUS46 KPQR 230752 AAA
TAFAST
TAF AMD
KAST 230752Z 2308/2406 23007KT P6SM BKN010 OVC020
     FM230900 27005KT 3SM -RADZ BR BKN006 OVC012
     FM231500 28003KT P6SM SCT007 OVC015
     FM231900 31008KT P6SM OVC025=



000
FTUS46 KPQR 230752 AAA
TAFAST
TAF AMD
KAST 230752Z 2308/2406 23007KT P6SM BKN010 OVC020
     FM230900 27005KT 3SM -RADZ BR BKN006 OVC012
     FM231500 28003KT P6SM SCT007 OVC015
     FM231900 31008KT P6SM OVC025=



000
FTUS46 KPQR 230751 AAA
TAFONP
TAF AMD
KONP 230751Z 2308/2406 VRB05KT 3SM -DZ BR BKN003 OVC007
     FM231400 32003KT P6SM SCT007 OVC018
     FM232000 32008KT P6SM BKN015 OVC025=



000
FTUS46 KPQR 230751 AAA
TAFONP
TAF AMD
KONP 230751Z 2308/2406 VRB05KT 3SM -DZ BR BKN003 OVC007
     FM231400 32003KT P6SM SCT007 OVC018
     FM232000 32008KT P6SM BKN015 OVC025=



000
FTUS46 KPQR 230525
TAFONP
TAF
KONP 230525Z 2306/2406 31005KT 4SM BR SCT009 OVC020
      TEMPO 2306/2309 2SM BR BKN009 OVC015
     FM230900 31005KT 6SM -DZ BR BKN005 OVC012
     FM231400 32003KT P6SM SCT007 OVC018
     FM232000 32008KT P6SM BKN015 OVC025=



000
FTUS46 KPQR 230525
TAFONP
TAF
KONP 230525Z 2306/2406 31005KT 4SM BR SCT009 OVC020
      TEMPO 2306/2309 2SM BR BKN009 OVC015
     FM230900 31005KT 6SM -DZ BR BKN005 OVC012
     FM231400 32003KT P6SM SCT007 OVC018
     FM232000 32008KT P6SM BKN015 OVC025=



000
FTUS46 KPQR 230525
TAFAST
TAF
KAST 230525Z 2306/2406 23007KT P6SM BKN010 OVC025
     FM230900 27005KT 3SM -DZ BR BKN006 OVC012
     FM231500 28003KT P6SM SCT007 OVC015
     FM231900 31008KT P6SM OVC025=



000
FTUS46 KPQR 230525
TAFHIO
TAF
KHIO 230525Z 2306/2406 VRB03KT P6SM SCT015 OVC025
     FM230900 29003KT P6SM OVC015
      TEMPO 2310/2314 6SM -DZ
     FM231900 30004KT P6SM BKN015 OVC025
     FM232300 34007KT P6SM OVC050=



000
FTUS46 KPQR 230525
TAFPDX
TAF
KPDX 230525Z 2306/2406 32005KT P6SM BKN015 OVC020
     FM231100 27003KT P6SM SCT009 OVC015
      TEMPO 2311/2315 6SM -DZ
     FM231900 30006KT P6SM BKN025 OVC045
     FM232300 33007KT P6SM OVC050=



000
FTUS46 KPQR 230525
TAFEUG
TAF
KEUG 230525Z 2306/2406 23006KT P6SM OVC035
     FM230700 23005KT P6SM OVC025
     FM230900 VRB03KT P6SM OVC015
      TEMPO 2311/2315 6SM -DZ
     FM232000 32005KT P6SM BKN018 OVC025
     FM232300 34008KT P6SM BKN035 OVC050=



000
FTUS46 KPQR 230525
TAFONP
TAF
KONP 230525Z 2306/2406 31005KT 4SM BR SCT009 OVC020
      TEMPO 2306/2309 2SM BR BKN009 OVC015
     FM230900 31005KT 6SM -DZ BR BKN005 OVC012
     FM231400 32003KT P6SM SCT007 OVC018
     FM232000 32008KT P6SM BKN015 OVC025=



000
FTUS46 KPQR 230525
TAFSLE
TAF
KSLE 230525Z 2306/2406 24004KT P6SM BKN025 OVC035
     FM230800 VRB03KT P6SM OVC025
      TEMPO 2311/2315 6SM -DZ OVC015
     FM232000 30003KT P6SM BKN025 OVC045
     FM232300 34007KT P6SM OVC050=



000
FTUS46 KPQR 230525
TAFPDX
TAF
KPDX 230525Z 2306/2406 32005KT P6SM BKN015 OVC020
     FM231100 27003KT P6SM SCT009 OVC015
      TEMPO 2311/2315 6SM -DZ
     FM231900 30006KT P6SM BKN025 OVC045
     FM232300 33007KT P6SM OVC050=



000
FTUS46 KPQR 230525
TAFTTD
TAF
KTTD 230525Z 2306/2406 VRB03KT P6SM OVC020
     FM230700 VRB03KT P6SM OVC015
      TEMPO 2312/2315 6SM -DZ
     FM231900 30004KT P6SM BKN015 OVC025
     FM232300 34007KT P6SM OVC050=



000
FTUS46 KPQR 230525
TAFHIO
TAF
KHIO 230525Z 2306/2406 VRB03KT P6SM SCT015 OVC025
     FM230900 29003KT P6SM OVC015
      TEMPO 2310/2314 6SM -DZ
     FM231900 30004KT P6SM BKN015 OVC025
     FM232300 34007KT P6SM OVC050=



000
FTUS46 KPQR 230525
TAFEUG
TAF
KEUG 230525Z 2306/2406 23006KT P6SM OVC035
     FM230700 23005KT P6SM OVC025
     FM230900 VRB03KT P6SM OVC015
      TEMPO 2311/2315 6SM -DZ
     FM232000 32005KT P6SM BKN018 OVC025
     FM232300 34008KT P6SM BKN035 OVC050=



000
FTUS46 KPQR 230525
TAFAST
TAF
KAST 230525Z 2306/2406 23007KT P6SM BKN010 OVC025
     FM230900 27005KT 3SM -DZ BR BKN006 OVC012
     FM231500 28003KT P6SM SCT007 OVC015
     FM231900 31008KT P6SM OVC025=



000
FTUS46 KPQR 230525
TAFSLE
TAF
KSLE 230525Z 2306/2406 24004KT P6SM BKN025 OVC035
     FM230800 VRB03KT P6SM OVC025
      TEMPO 2311/2315 6SM -DZ OVC015
     FM232000 30003KT P6SM BKN025 OVC045
     FM232300 34007KT P6SM OVC050=



000
FTUS46 KPQR 230255 AAA
TAFPDX
TAF AMD
KPDX 230255Z 2303/2324 VRB03KT P6SM VCSH BKN018 OVC025
     FM230600 30005KT P6SM BKN015 OVC025
     FM231100 27003KT P6SM SCT009 OVC015
      TEMPO 2311/2315 6SM -DZ
     FM232100 30006KT P6SM BKN025 OVC045=



000
FTUS46 KPQR 230255 AAA
TAFPDX
TAF AMD
KPDX 230255Z 2303/2324 VRB03KT P6SM VCSH BKN018 OVC025
     FM230600 30005KT P6SM BKN015 OVC025
     FM231100 27003KT P6SM SCT009 OVC015
      TEMPO 2311/2315 6SM -DZ
     FM232100 30006KT P6SM BKN025 OVC045=



000
FTUS46 KPQR 230255 AAA
TAFPDX
TAF AMD
KPDX 230255Z 2303/2324 VRB03KT P6SM VCSH BKN018 OVC025
     FM230600 30005KT P6SM BKN015 OVC025
     FM231100 27003KT P6SM SCT009 OVC015
      TEMPO 2311/2315 6SM -DZ
     FM232100 30006KT P6SM BKN025 OVC045=



000
FTUS46 KPQR 230255 AAA
TAFPDX
TAF AMD
KPDX 230255Z 2303/2324 VRB03KT P6SM VCSH BKN018 OVC025
     FM230600 30005KT P6SM BKN015 OVC025
     FM231100 27003KT P6SM SCT009 OVC015
      TEMPO 2311/2315 6SM -DZ
     FM232100 30006KT P6SM BKN025 OVC045=



000
FTUS46 KPQR 222320
TAFSLE
TAF
KSLE 222320Z 2300/2324 22004KT P6SM VCSH SCT025 OVC035
     FM230300 24004KT P6SM OVC025
     FM230700 VRB03KT P6SM OVC015
      TEMPO 2311/2315 6SM -DZ=



000
FTUS46 KPQR 222320
TAFONP
TAF
KONP 222320Z 2300/2324 31005KT 6SM BR BKN009 OVC015
     FM230900 31005KT 6SM -DZ BR BKN005 OVC012=



000
FTUS46 KPQR 222320
TAFAST
TAF
KAST 222320Z 2300/2324 28007KT 6SM BR BKN008 OVC015
     FM230900 27005KT 6SM -DZ BR BKN006 OVC012=



000
FTUS46 KPQR 222320
TAFPDX
TAF
KPDX 222320Z 2300/2324 VRB03KT P6SM VCSH OVC025
     FM230600 30005KT P6SM SCT015 OVC025
     FM231100 27003KT P6SM OVC015
      TEMPO 2311/2315 6SM -DZ=



000
FTUS46 KPQR 222320
TAFEUG
TAF
KEUG 222320Z 2300/2324 23006KT P6SM BKN025 OVC035
     FM230300 23005KT P6SM OVC025
     FM230700 VRB03KT P6SM OVC015
      TEMPO 2311/2315 6SM -DZ=



000
FTUS46 KPQR 222320
TAFSLE
TAF
KSLE 222320Z 2300/2324 22004KT P6SM VCSH SCT025 OVC035
     FM230300 24004KT P6SM OVC025
     FM230700 VRB03KT P6SM OVC015
      TEMPO 2311/2315 6SM -DZ=



000
FTUS46 KPQR 222320
TAFTTD
TAF
KTTD 222320Z 2300/2324 26005KT P6SM VCSH OVC015
     FM230300 VRB03KT P6SM OVC025
     FM230700 VRB03KT P6SM OVC015
      TEMPO 2312/2315 6SM -DZ=



000
FTUS46 KPQR 222320
TAFEUG
TAF
KEUG 222320Z 2300/2324 23006KT P6SM BKN025 OVC035
     FM230300 23005KT P6SM OVC025
     FM230700 VRB03KT P6SM OVC015
      TEMPO 2311/2315 6SM -DZ=



000
FTUS46 KPQR 222320
TAFONP
TAF
KONP 222320Z 2300/2324 31005KT 6SM BR BKN009 OVC015
     FM230900 31005KT 6SM -DZ BR BKN005 OVC012=



000
FTUS46 KPQR 222320
TAFHIO
TAF
KHIO 222320Z 2300/2324 28003KT P6SM VCSH BKN015 OVC025
     FM230600 27005KT P6SM SCT015 OVC025
     FM230900 29003KT P6SM OVC015
      TEMPO 2310/2314 6SM -DZ=



000
FTUS46 KPQR 222320
TAFSLE
TAF
KSLE 222320Z 2300/2324 22004KT P6SM VCSH SCT025 OVC035
     FM230300 24004KT P6SM OVC025
     FM230700 VRB03KT P6SM OVC015
      TEMPO 2311/2315 6SM -DZ=



000
FTUS46 KPQR 222320
TAFPDX
TAF
KPDX 222320Z 2300/2324 VRB03KT P6SM VCSH OVC025
     FM230600 30005KT P6SM SCT015 OVC025
     FM231100 27003KT P6SM OVC015
      TEMPO 2311/2315 6SM -DZ=



000
FTUS46 KPQR 222320
TAFHIO
TAF
KHIO 222320Z 2300/2324 28003KT P6SM VCSH BKN015 OVC025
     FM230600 27005KT P6SM SCT015 OVC025
     FM230900 29003KT P6SM OVC015
      TEMPO 2310/2314 6SM -DZ=



000
FTUS46 KPQR 222320
TAFEUG
TAF
KEUG 222320Z 2300/2324 23006KT P6SM BKN025 OVC035
     FM230300 23005KT P6SM OVC025
     FM230700 VRB03KT P6SM OVC015
      TEMPO 2311/2315 6SM -DZ=



000
FTUS46 KPQR 222320
TAFEUG
TAF
KEUG 222320Z 2300/2324 23006KT P6SM BKN025 OVC035
     FM230300 23005KT P6SM OVC025
     FM230700 VRB03KT P6SM OVC015
      TEMPO 2311/2315 6SM -DZ=



000
FTUS46 KPQR 222320
TAFPDX
TAF
KPDX 222320Z 2300/2324 VRB03KT P6SM VCSH OVC025
     FM230600 30005KT P6SM SCT015 OVC025
     FM231100 27003KT P6SM OVC015
      TEMPO 2311/2315 6SM -DZ=



000
FTUS46 KPQR 222320
TAFAST
TAF
KAST 222320Z 2300/2324 28007KT 6SM BR BKN008 OVC015
     FM230900 27005KT 6SM -DZ BR BKN006 OVC012=



000
FTUS46 KPQR 222320
TAFTTD
TAF
KTTD 222320Z 2300/2324 26005KT P6SM VCSH OVC015
     FM230300 VRB03KT P6SM OVC025
     FM230700 VRB03KT P6SM OVC015
      TEMPO 2312/2315 6SM -DZ=



000
FTUS46 KPQR 222320
TAFHIO
TAF
KHIO 222320Z 2300/2324 28003KT P6SM VCSH BKN015 OVC025
     FM230600 27005KT P6SM SCT015 OVC025
     FM230900 29003KT P6SM OVC015
      TEMPO 2310/2314 6SM -DZ=



000
FTUS46 KPQR 222320
TAFSLE
TAF
KSLE 222320Z 2300/2324 22004KT P6SM VCSH SCT025 OVC035
     FM230300 24004KT P6SM OVC025
     FM230700 VRB03KT P6SM OVC015
      TEMPO 2311/2315 6SM -DZ=



000
FTUS46 KPQR 222320
TAFAST
TAF
KAST 222320Z 2300/2324 28007KT 6SM BR BKN008 OVC015
     FM230900 27005KT 6SM -DZ BR BKN006 OVC012=



000
FTUS46 KPQR 222320
TAFONP
TAF
KONP 222320Z 2300/2324 31005KT 6SM BR BKN009 OVC015
     FM230900 31005KT 6SM -DZ BR BKN005 OVC012=



000
FTUS46 KPQR 222320
TAFPDX
TAF
KPDX 222320Z 2300/2324 VRB03KT P6SM VCSH OVC025
     FM230600 30005KT P6SM SCT015 OVC025
     FM231100 27003KT P6SM OVC015
      TEMPO 2311/2315 6SM -DZ=



000
FTUS46 KPQR 222320
TAFTTD
TAF
KTTD 222320Z 2300/2324 26005KT P6SM VCSH OVC015
     FM230300 VRB03KT P6SM OVC025
     FM230700 VRB03KT P6SM OVC015
      TEMPO 2312/2315 6SM -DZ=



000
FTUS46 KPQR 222320
TAFTTD
TAF
KTTD 222320Z 2300/2324 26005KT P6SM VCSH OVC015
     FM230300 VRB03KT P6SM OVC025
     FM230700 VRB03KT P6SM OVC015
      TEMPO 2312/2315 6SM -DZ=



000
FTUS46 KPQR 222320
TAFONP
TAF
KONP 222320Z 2300/2324 31005KT 6SM BR BKN009 OVC015
     FM230900 31005KT 6SM -DZ BR BKN005 OVC012=



000
FTUS46 KPQR 222320
TAFHIO
TAF
KHIO 222320Z 2300/2324 28003KT P6SM VCSH BKN015 OVC025
     FM230600 27005KT P6SM SCT015 OVC025
     FM230900 29003KT P6SM OVC015
      TEMPO 2310/2314 6SM -DZ=



000
FTUS46 KPQR 222202 AAC
TAFONP
TAF AMD
KONP 222202Z 2222/2318 VRB03KT 6SM BR SCT009 OVC015
     FM230100 29005KT 5SM BR SCT005 OVC020
     FM230500 31005KT 6SM -DZ BR SCT004 OVC012=



000
FTUS46 KPQR 222202 AAC
TAFONP
TAF AMD
KONP 222202Z 2222/2318 VRB03KT 6SM BR SCT009 OVC015
     FM230100 29005KT 5SM BR SCT005 OVC020
     FM230500 31005KT 6SM -DZ BR SCT004 OVC012=



000
FTUS46 KPQR 222202 AAC
TAFONP
TAF AMD
KONP 222202Z 2222/2318 VRB03KT 6SM BR SCT009 OVC015
     FM230100 29005KT 5SM BR SCT005 OVC020
     FM230500 31005KT 6SM -DZ BR SCT004 OVC012=



000
FTUS46 KPQR 222202 AAC
TAFONP
TAF AMD
KONP 222202Z 2222/2318 VRB03KT 6SM BR SCT009 OVC015
     FM230100 29005KT 5SM BR SCT005 OVC020
     FM230500 31005KT 6SM -DZ BR SCT004 OVC012=



000
FTUS46 KPQR 222055 AAA
TAFHIO
TAF AMD
KHIO 222055Z 2221/2318 28003KT P6SM OVC018
     FM230100 27005KT P6SM SCT015 OVC025
     FM230900 29003KT P6SM -DZ OVC015=



000
FTUS46 KPQR 222055 AAA
TAFHIO
TAF AMD
KHIO 222055Z 2221/2318 28003KT P6SM OVC018
     FM230100 27005KT P6SM SCT015 OVC025
     FM230900 29003KT P6SM -DZ OVC015=



000
FTUS46 KPQR 222054 AAA
TAFEUG
TAF AMD
KEUG 222054Z 2221/2318 23006KT P6SM OVC015
     FM222200 23006KT P6SM SCT015 BKN025
     FM230600 23005KT P6SM OVC025
     FM231200 24004KT P6SM -DZ OVC015=



000
FTUS46 KPQR 222054 AAA
TAFEUG
TAF AMD
KEUG 222054Z 2221/2318 23006KT P6SM OVC015
     FM222200 23006KT P6SM SCT015 BKN025
     FM230600 23005KT P6SM OVC025
     FM231200 24004KT P6SM -DZ OVC015=



000
FTUS46 KPQR 222052 AAB
TAFONP
TAF AMD
KONP 222052Z 2221/2318 VRB03KT 5SM BR BKN005 OVC010
     FM230100 29005KT 5SM BR SCT005 OVC020
     FM230500 31005KT 6SM -DZ BR SCT004 OVC012=



000
FTUS46 KPQR 222052 AAB
TAFONP
TAF AMD
KONP 222052Z 2221/2318 VRB03KT 5SM BR BKN005 OVC010
     FM230100 29005KT 5SM BR SCT005 OVC020
     FM230500 31005KT 6SM -DZ BR SCT004 OVC012=



000
FTUS46 KPQR 222050 AAA
TAFPDX
TAF AMD
KPDX 222050Z 2221/2318 VRB03KT P6SM SCT015 OVC020
     FM230600 30005KT P6SM SCT015 OVC025
     FM231100 27003KT P6SM -DZ OVC015=



000
FTUS46 KPQR 222050 AAA
TAFPDX
TAF AMD
KPDX 222050Z 2221/2318 VRB03KT P6SM SCT015 OVC020
     FM230600 30005KT P6SM SCT015 OVC025
     FM231100 27003KT P6SM -DZ OVC015=



000
FTUS46 KPQR 221917 AAA
TAFONP
TAF AMD
KONP 221917Z 2219/2318 VRB03KT 5SM BR SCT003 OVC020
     FM230500 31005KT 6SM -DZ BR SCT004 OVC012=



000
FTUS46 KPQR 221917 AAA
TAFONP
TAF AMD
KONP 221917Z 2219/2318 VRB03KT 5SM BR SCT003 OVC020
     FM230500 31005KT 6SM -DZ BR SCT004 OVC012=



000
FTUS46 KPQR 221720
TAFEUG
TAF
KEUG 221720Z 2218/2318 23006KT P6SM OVC015
      TEMPO 2218/2221 -SHRA
     FM222200 23006KT P6SM SCT015 BKN025
     FM230300 24007KT P6SM SCT025 BKN100
     FM230600 23005KT P6SM OVC025
     FM231200 24004KT P6SM -DZ OVC015=



000
FTUS46 KPQR 221720
TAFAST
TAF
KAST 221720Z 2218/2318 28007KT 6SM BR SCT008 OVC015
      TEMPO 2218/2221 4SM BR
     FM230500 26005KT 6SM -DZ BR SCT007 OVC012=



000
FTUS46 KPQR 221720
TAFHIO
TAF
KHIO 221720Z 2218/2318 28003KT P6SM OVC016
     FM222100 27005KT P6SM SCT015 OVC025
     FM230100 27005KT P6SM SCT025 BKN120
     FM230900 29003KT P6SM -DZ OVC015=



000
FTUS46 KPQR 221720
TAFAST
TAF
KAST 221720Z 2218/2318 28007KT 6SM BR SCT008 OVC015
      TEMPO 2218/2221 4SM BR
     FM230500 26005KT 6SM -DZ BR SCT007 OVC012=



000
FTUS46 KPQR 221720
TAFONP
TAF
KONP 221720Z 2218/2318 VRB03KT 2SM BR BKN003 OVC012
     FM222100 30005KT 6SM BR SCT006 OVC015
     FM230500 31005KT 6SM -DZ BR SCT004 OVC012=



000
FTUS46 KPQR 221720
TAFSLE
TAF
KSLE 221720Z 2218/2318 22004KT P6SM OVC015
      TEMPO 2218/2220 -SHRA
     FM222200 22004KT P6SM SCT015 OVC025
     FM230200 27006KT P6SM SCT025 BKN120
     FM230600 24004KT P6SM OVC025
     FM231200 VRB03KT P6SM -DZ OVC015=



000
FTUS46 KPQR 221720
TAFSLE
TAF
KSLE 221720Z 2218/2318 22004KT P6SM OVC015
      TEMPO 2218/2220 -SHRA
     FM222200 22004KT P6SM SCT015 OVC025
     FM230200 27006KT P6SM SCT025 BKN120
     FM230600 24004KT P6SM OVC025
     FM231200 VRB03KT P6SM -DZ OVC015=



000
FTUS46 KPQR 221720
TAFEUG
TAF
KEUG 221720Z 2218/2318 23006KT P6SM OVC015
      TEMPO 2218/2221 -SHRA
     FM222200 23006KT P6SM SCT015 BKN025
     FM230300 24007KT P6SM SCT025 BKN100
     FM230600 23005KT P6SM OVC025
     FM231200 24004KT P6SM -DZ OVC015=



000
FTUS46 KPQR 221720
TAFONP
TAF
KONP 221720Z 2218/2318 VRB03KT 2SM BR BKN003 OVC012
     FM222100 30005KT 6SM BR SCT006 OVC015
     FM230500 31005KT 6SM -DZ BR SCT004 OVC012=



000
FTUS46 KPQR 221720
TAFPDX
TAF
KPDX 221720Z 2218/2318 VRB03KT P6SM SCT015 OVC025
     FM222100 30007KT P6SM SCT025 BKN120
     FM230600 30005KT P6SM SCT015 OVC025
     FM231100 27003KT P6SM -DZ OVC015=



000
FTUS46 KPQR 221720
TAFHIO
TAF
KHIO 221720Z 2218/2318 28003KT P6SM OVC016
     FM222100 27005KT P6SM SCT015 OVC025
     FM230100 27005KT P6SM SCT025 BKN120
     FM230900 29003KT P6SM -DZ OVC015=



000
FTUS46 KPQR 221720
TAFAST
TAF
KAST 221720Z 2218/2318 28007KT 6SM BR SCT008 OVC015
      TEMPO 2218/2221 4SM BR
     FM230500 26005KT 6SM -DZ BR SCT007 OVC012=



000
FTUS46 KPQR 221720
TAFPDX
TAF
KPDX 221720Z 2218/2318 VRB03KT P6SM SCT015 OVC025
     FM222100 30007KT P6SM SCT025 BKN120
     FM230600 30005KT P6SM SCT015 OVC025
     FM231100 27003KT P6SM -DZ OVC015=



000
FTUS46 KPQR 221720
TAFTTD
TAF
KTTD 221720Z 2218/2318 26002KT P6SM OVC018
     FM222200 26005KT P6SM SCT025 BKN120
     FM230600 VRB03KT P6SM OVC025
     FM231200 00000KT P6SM -DZ OVC015=



000
FTUS46 KPQR 221720
TAFPDX
TAF
KPDX 221720Z 2218/2318 VRB03KT P6SM SCT015 OVC025
     FM222100 30007KT P6SM SCT025 BKN120
     FM230600 30005KT P6SM SCT015 OVC025
     FM231100 27003KT P6SM -DZ OVC015=



000
FTUS46 KPQR 221720
TAFHIO
TAF
KHIO 221720Z 2218/2318 28003KT P6SM OVC016
     FM222100 27005KT P6SM SCT015 OVC025
     FM230100 27005KT P6SM SCT025 BKN120
     FM230900 29003KT P6SM -DZ OVC015=



000
FTUS46 KPQR 221720
TAFONP
TAF
KONP 221720Z 2218/2318 VRB03KT 2SM BR BKN003 OVC012
     FM222100 30005KT 6SM BR SCT006 OVC015
     FM230500 31005KT 6SM -DZ BR SCT004 OVC012=



000
FTUS46 KPQR 221720
TAFPDX
TAF
KPDX 221720Z 2218/2318 VRB03KT P6SM SCT015 OVC025
     FM222100 30007KT P6SM SCT025 BKN120
     FM230600 30005KT P6SM SCT015 OVC025
     FM231100 27003KT P6SM -DZ OVC015=



000
FTUS46 KPQR 221720
TAFAST
TAF
KAST 221720Z 2218/2318 28007KT 6SM BR SCT008 OVC015
      TEMPO 2218/2221 4SM BR
     FM230500 26005KT 6SM -DZ BR SCT007 OVC012=



000
FTUS46 KPQR 221720
TAFTTD
TAF
KTTD 221720Z 2218/2318 26002KT P6SM OVC018
     FM222200 26005KT P6SM SCT025 BKN120
     FM230600 VRB03KT P6SM OVC025
     FM231200 00000KT P6SM -DZ OVC015=



000
FTUS46 KPQR 221720
TAFSLE
TAF
KSLE 221720Z 2218/2318 22004KT P6SM OVC015
      TEMPO 2218/2220 -SHRA
     FM222200 22004KT P6SM SCT015 OVC025
     FM230200 27006KT P6SM SCT025 BKN120
     FM230600 24004KT P6SM OVC025
     FM231200 VRB03KT P6SM -DZ OVC015=



000
FTUS46 KPQR 221720
TAFEUG
TAF
KEUG 221720Z 2218/2318 23006KT P6SM OVC015
      TEMPO 2218/2221 -SHRA
     FM222200 23006KT P6SM SCT015 BKN025
     FM230300 24007KT P6SM SCT025 BKN100
     FM230600 23005KT P6SM OVC025
     FM231200 24004KT P6SM -DZ OVC015=



000
FTUS46 KPQR 221720
TAFSLE
TAF
KSLE 221720Z 2218/2318 22004KT P6SM OVC015
      TEMPO 2218/2220 -SHRA
     FM222200 22004KT P6SM SCT015 OVC025
     FM230200 27006KT P6SM SCT025 BKN120
     FM230600 24004KT P6SM OVC025
     FM231200 VRB03KT P6SM -DZ OVC015=



000
FTUS46 KPQR 221720
TAFONP
TAF
KONP 221720Z 2218/2318 VRB03KT 2SM BR BKN003 OVC012
     FM222100 30005KT 6SM BR SCT006 OVC015
     FM230500 31005KT 6SM -DZ BR SCT004 OVC012=



000
FTUS46 KPQR 221720
TAFEUG
TAF
KEUG 221720Z 2218/2318 23006KT P6SM OVC015
      TEMPO 2218/2221 -SHRA
     FM222200 23006KT P6SM SCT015 BKN025
     FM230300 24007KT P6SM SCT025 BKN100
     FM230600 23005KT P6SM OVC025
     FM231200 24004KT P6SM -DZ OVC015=



000
FTUS46 KPQR 221720
TAFHIO
TAF
KHIO 221720Z 2218/2318 28003KT P6SM OVC016
     FM222100 27005KT P6SM SCT015 OVC025
     FM230100 27005KT P6SM SCT025 BKN120
     FM230900 29003KT P6SM -DZ OVC015=



000
FTUS46 KPQR 221720
TAFTTD
TAF
KTTD 221720Z 2218/2318 26002KT P6SM OVC018
     FM222200 26005KT P6SM SCT025 BKN120
     FM230600 VRB03KT P6SM OVC025
     FM231200 00000KT P6SM -DZ OVC015=



000
FTUS46 KPQR 221720
TAFTTD
TAF
KTTD 221720Z 2218/2318 26002KT P6SM OVC018
     FM222200 26005KT P6SM SCT025 BKN120
     FM230600 VRB03KT P6SM OVC025
     FM231200 00000KT P6SM -DZ OVC015=



000
FTUS46 KPQR 221539 AAA
TAFEUG
TAF AMD
KEUG 221539Z 2216/2312 23006KT P6SM OVC014
      TEMPO 2216/2219 -SHRA
     FM221900 23006KT P6SM SCT015 BKN025
     FM222200 24007KT P6SM SCT025 BKN100
     FM230600 23005KT P6SM OVC025=



000
FTUS46 KPQR 221539 AAA
TAFEUG
TAF AMD
KEUG 221539Z 2216/2312 23006KT P6SM OVC014
      TEMPO 2216/2219 -SHRA
     FM221900 23006KT P6SM SCT015 BKN025
     FM222200 24007KT P6SM SCT025 BKN100
     FM230600 23005KT P6SM OVC025=



000
FTUS46 KPQR 221539 AAA
TAFEUG
TAF AMD
KEUG 221539Z 2216/2312 23006KT P6SM OVC014
      TEMPO 2216/2219 -SHRA
     FM221900 23006KT P6SM SCT015 BKN025
     FM222200 24007KT P6SM SCT025 BKN100
     FM230600 23005KT P6SM OVC025=



000
FTUS46 KPQR 221539 AAA
TAFEUG
TAF AMD
KEUG 221539Z 2216/2312 23006KT P6SM OVC014
      TEMPO 2216/2219 -SHRA
     FM221900 23006KT P6SM SCT015 BKN025
     FM222200 24007KT P6SM SCT025 BKN100
     FM230600 23005KT P6SM OVC025=



000
FTUS46 KPQR 221537 AAA
TAFSLE
TAF AMD
KSLE 221537Z 2216/2312 22004KT P6SM OVC021
      TEMPO 2216/2219 -SHRA
     FM221900 22004KT P6SM SCT015 OVC025
     FM222200 27006KT P6SM SCT025 BKN120
     FM230600 24004KT P6SM OVC025=



000
FTUS46 KPQR 221537 AAA
TAFSLE
TAF AMD
KSLE 221537Z 2216/2312 22004KT P6SM OVC021
      TEMPO 2216/2219 -SHRA
     FM221900 22004KT P6SM SCT015 OVC025
     FM222200 27006KT P6SM SCT025 BKN120
     FM230600 24004KT P6SM OVC025=



000
FTUS46 KPQR 221537 AAA
TAFSLE
TAF AMD
KSLE 221537Z 2216/2312 22004KT P6SM OVC021
      TEMPO 2216/2219 -SHRA
     FM221900 22004KT P6SM SCT015 OVC025
     FM222200 27006KT P6SM SCT025 BKN120
     FM230600 24004KT P6SM OVC025=



000
FTUS46 KPQR 221537 AAA
TAFSLE
TAF AMD
KSLE 221537Z 2216/2312 22004KT P6SM OVC021
      TEMPO 2216/2219 -SHRA
     FM221900 22004KT P6SM SCT015 OVC025
     FM222200 27006KT P6SM SCT025 BKN120
     FM230600 24004KT P6SM OVC025=



000
FTUS46 KPQR 221535 AAA
TAFONP
TAF AMD
KONP 221535Z 2216/2312 VRB03KT 2SM -DZ BR BKN003 OVC012
     FM221900 30005KT 6SM BR SCT006 OVC015=



000
FTUS46 KPQR 221535 AAA
TAFONP
TAF AMD
KONP 221535Z 2216/2312 VRB03KT 2SM -DZ BR BKN003 OVC012
     FM221900 30005KT 6SM BR SCT006 OVC015=



000
FTUS46 KPQR 221450 AAA
TAFPDX
TAF AMD
KPDX 221450Z 2215/2312 33004KT P6SM SCT015 OVC025
     FM221900 29006KT P6SM SCT015 OVC025
     FM222200 30007KT P6SM SCT025 BKN120
     FM230600 30005KT P6SM OVC025=



000
FTUS46 KPQR 221450 AAA
TAFPDX
TAF AMD
KPDX 221450Z 2215/2312 33004KT P6SM SCT015 OVC025
     FM221900 29006KT P6SM SCT015 OVC025
     FM222200 30007KT P6SM SCT025 BKN120
     FM230600 30005KT P6SM OVC025=



000
FTUS46 KPQR 221120
TAFONP
TAF
KONP 221120Z 2212/2312 30003KT 2SM BR BKN008 OVC011
      TEMPO 2212/2216 5SM BR OVC011
     FM221600 30006KT 6SM BR OVC012=



000
FTUS46 KPQR 221120
TAFAST
TAF
KAST 221120Z 2212/2312 27005KT P6SM BKN008 OVC013
      TEMPO 2212/2216 SCT008 OVC013
     FM221600 28007KT P6SM SCT008 OVC013=



000
FTUS46 KPQR 221120
TAFONP
TAF
KONP 221120Z 2212/2312 30003KT 2SM BR BKN008 OVC011
      TEMPO 2212/2216 5SM BR OVC011
     FM221600 30006KT 6SM BR OVC012=



000
FTUS46 KPQR 221120
TAFEUG
TAF
KEUG 221120Z 2212/2312 23006KT P6SM OVC014
      TEMPO 2212/2216 -SHRA
     FM221900 23006KT P6SM SCT015 BKN025
     FM222200 24007KT P6SM SCT025 BKN100
     FM230600 23005KT P6SM OVC025=



000
FTUS46 KPQR 221120
TAFHIO
TAF
KHIO 221120Z 2212/2312 28003KT P6SM OVC016
     FM221900 27005KT P6SM SCT015 OVC025
     FM222200 27005KT P6SM SCT025 BKN120
     FM230600 29003KT P6SM OVC025=



000
FTUS46 KPQR 221120
TAFHIO
TAF
KHIO 221120Z 2212/2312 28003KT P6SM OVC016
     FM221900 27005KT P6SM SCT015 OVC025
     FM222200 27005KT P6SM SCT025 BKN120
     FM230600 29003KT P6SM OVC025=



000
FTUS46 KPQR 221120
TAFEUG
TAF
KEUG 221120Z 2212/2312 23006KT P6SM OVC014
      TEMPO 2212/2216 -SHRA
     FM221900 23006KT P6SM SCT015 BKN025
     FM222200 24007KT P6SM SCT025 BKN100
     FM230600 23005KT P6SM OVC025=



000
FTUS46 KPQR 221120
TAFSLE
TAF
KSLE 221120Z 2212/2312 22004KT P6SM OVC016
      TEMPO 2212/2216 -SHRA
     FM221900 22004KT P6SM SCT015 OVC025
     FM222200 27006KT P6SM SCT025 BKN120
     FM230600 24004KT P6SM OVC025=



000
FTUS46 KPQR 221120
TAFTTD
TAF
KTTD 221120Z 2212/2312 26002KT P6SM OVC018
     FM221900 26004KT P6SM SCT015 OVC025
     FM222200 26005KT P6SM SCT025 BKN120
     FM230600 VRB03KT P6SM OVC025=



000
FTUS46 KPQR 221120
TAFTTD
TAF
KTTD 221120Z 2212/2312 26002KT P6SM OVC018
     FM221900 26004KT P6SM SCT015 OVC025
     FM222200 26005KT P6SM SCT025 BKN120
     FM230600 VRB03KT P6SM OVC025=



000
FTUS46 KPQR 221120
TAFSLE
TAF
KSLE 221120Z 2212/2312 22004KT P6SM OVC016
      TEMPO 2212/2216 -SHRA
     FM221900 22004KT P6SM SCT015 OVC025
     FM222200 27006KT P6SM SCT025 BKN120
     FM230600 24004KT P6SM OVC025=



000
FTUS46 KPQR 221120
TAFEUG
TAF
KEUG 221120Z 2212/2312 23006KT P6SM OVC014
      TEMPO 2212/2216 -SHRA
     FM221900 23006KT P6SM SCT015 BKN025
     FM222200 24007KT P6SM SCT025 BKN100
     FM230600 23005KT P6SM OVC025=



000
FTUS46 KPQR 221120
TAFHIO
TAF
KHIO 221120Z 2212/2312 28003KT P6SM OVC016
     FM221900 27005KT P6SM SCT015 OVC025
     FM222200 27005KT P6SM SCT025 BKN120
     FM230600 29003KT P6SM OVC025=



000
FTUS46 KPQR 221120
TAFPDX
TAF
KPDX 221120Z 2212/2312 33004KT P6SM OVC018
     FM221900 29006KT P6SM SCT015 OVC025
     FM222200 30007KT P6SM SCT025 BKN120
     FM230600 30005KT P6SM OVC025=



000
FTUS46 KPQR 221120
TAFSLE
TAF
KSLE 221120Z 2212/2312 22004KT P6SM OVC016
      TEMPO 2212/2216 -SHRA
     FM221900 22004KT P6SM SCT015 OVC025
     FM222200 27006KT P6SM SCT025 BKN120
     FM230600 24004KT P6SM OVC025=



000
FTUS46 KPQR 221120
TAFONP
TAF
KONP 221120Z 2212/2312 30003KT 2SM BR BKN008 OVC011
      TEMPO 2212/2216 5SM BR OVC011
     FM221600 30006KT 6SM BR OVC012=



000
FTUS46 KPQR 221120
TAFTTD
TAF
KTTD 221120Z 2212/2312 26002KT P6SM OVC018
     FM221900 26004KT P6SM SCT015 OVC025
     FM222200 26005KT P6SM SCT025 BKN120
     FM230600 VRB03KT P6SM OVC025=



000
FTUS46 KPQR 221120
TAFHIO
TAF
KHIO 221120Z 2212/2312 28003KT P6SM OVC016
     FM221900 27005KT P6SM SCT015 OVC025
     FM222200 27005KT P6SM SCT025 BKN120
     FM230600 29003KT P6SM OVC025=



000
FTUS46 KPQR 221120
TAFPDX
TAF
KPDX 221120Z 2212/2312 33004KT P6SM OVC018
     FM221900 29006KT P6SM SCT015 OVC025
     FM222200 30007KT P6SM SCT025 BKN120
     FM230600 30005KT P6SM OVC025=



000
FTUS46 KPQR 221120
TAFTTD
TAF
KTTD 221120Z 2212/2312 26002KT P6SM OVC018
     FM221900 26004KT P6SM SCT015 OVC025
     FM222200 26005KT P6SM SCT025 BKN120
     FM230600 VRB03KT P6SM OVC025=



000
FTUS46 KPQR 221120
TAFAST
TAF
KAST 221120Z 2212/2312 27005KT P6SM BKN008 OVC013
      TEMPO 2212/2216 SCT008 OVC013
     FM221600 28007KT P6SM SCT008 OVC013=



000
FTUS46 KPQR 221120
TAFSLE
TAF
KSLE 221120Z 2212/2312 22004KT P6SM OVC016
      TEMPO 2212/2216 -SHRA
     FM221900 22004KT P6SM SCT015 OVC025
     FM222200 27006KT P6SM SCT025 BKN120
     FM230600 24004KT P6SM OVC025=



000
FTUS46 KPQR 221120
TAFPDX
TAF
KPDX 221120Z 2212/2312 33004KT P6SM OVC018
     FM221900 29006KT P6SM SCT015 OVC025
     FM222200 30007KT P6SM SCT025 BKN120
     FM230600 30005KT P6SM OVC025=



000
FTUS46 KPQR 221120
TAFONP
TAF
KONP 221120Z 2212/2312 30003KT 2SM BR BKN008 OVC011
      TEMPO 2212/2216 5SM BR OVC011
     FM221600 30006KT 6SM BR OVC012=



000
FTUS46 KPQR 221120
TAFAST
TAF
KAST 221120Z 2212/2312 27005KT P6SM BKN008 OVC013
      TEMPO 2212/2216 SCT008 OVC013
     FM221600 28007KT P6SM SCT008 OVC013=



000
FTUS46 KPQR 221120
TAFPDX
TAF
KPDX 221120Z 2212/2312 33004KT P6SM OVC018
     FM221900 29006KT P6SM SCT015 OVC025
     FM222200 30007KT P6SM SCT025 BKN120
     FM230600 30005KT P6SM OVC025=



000
FTUS46 KPQR 221120
TAFEUG
TAF
KEUG 221120Z 2212/2312 23006KT P6SM OVC014
      TEMPO 2212/2216 -SHRA
     FM221900 23006KT P6SM SCT015 BKN025
     FM222200 24007KT P6SM SCT025 BKN100
     FM230600 23005KT P6SM OVC025=



000
FTUS46 KPQR 220855 AAA
TAFPDX
TAF AMD
KPDX 220855Z 2209/2306 33004KT P6SM BKN016 OVC040
      TEMPO 2209/2211 SCT020 OVC060
     FM221700 25005KT P6SM SCT015 OVC025
     FM222000 30007KT P6SM SCT025 SCT100=



000
FTUS46 KPQR 220855 AAA
TAFPDX
TAF AMD
KPDX 220855Z 2209/2306 33004KT P6SM BKN016 OVC040
      TEMPO 2209/2211 SCT020 OVC060
     FM221700 25005KT P6SM SCT015 OVC025
     FM222000 30007KT P6SM SCT025 SCT100=



000
FTUS46 KPQR 220855 AAA
TAFPDX
TAF AMD
KPDX 220855Z 2209/2306 33004KT P6SM BKN016 OVC040
      TEMPO 2209/2211 SCT020 OVC060
     FM221700 25005KT P6SM SCT015 OVC025
     FM222000 30007KT P6SM SCT025 SCT100=



000
FTUS46 KPQR 220855 AAA
TAFPDX
TAF AMD
KPDX 220855Z 2209/2306 33004KT P6SM BKN016 OVC040
      TEMPO 2209/2211 SCT020 OVC060
     FM221700 25005KT P6SM SCT015 OVC025
     FM222000 30007KT P6SM SCT025 SCT100=



000
FTUS46 KPQR 220523
TAFHIO
TAF
KHIO 220523Z 2206/2306 29005KT P6SM VCSH SCT040 BKN100
     FM221000 00000KT P6SM OVC015
     FM221800 27003KT P6SM SCT015 OVC025
     FM222100 30004KT P6SM SCT025 SCT100=



000
FTUS46 KPQR 220523
TAFAST
TAF
KAST 220523Z 2206/2306 28006KT P6SM OVC008
     FM220800 26005KT 5SM BR OVC004
     FM221600 28005KT P6SM OVC006
     FM222100 28008KT P6SM OVC010
     FM230100 27005KT P6SM OVC007=



000
FTUS46 KPQR 220523
TAFPDX
TAF
KPDX 220523Z 2206/2306 31005KT P6SM VCSH SCT040 BKN100
     FM220900 28004KT P6SM OVC015
     FM221700 25005KT P6SM SCT015 OVC025
     FM222000 30007KT P6SM SCT025 SCT100=



000
FTUS46 KPQR 220523
TAFSLE
TAF
KSLE 220523Z 2206/2306 28006KT P6SM VCSH SCT050 BKN100
     FM220900 24005KT P6SM SCT009 OVC015
     FM222000 24005KT P6SM SCT015 OVC025
     FM222200 28005KT P6SM SCT025 SCT100=



000
FTUS46 KPQR 220523
TAFONP
TAF
KONP 220523Z 2206/2306 30003KT 2SM BR OVC005
     FM222100 31008KT 4SM BR OVC007=



000
FTUS46 KPQR 220523
TAFEUG
TAF
KEUG 220523Z 2206/2306 22006KT P6SM SHRA SCT025 BKN050
      TEMPO 2206/2209 SHRA BKN025
     FM221000 23005KT P6SM OVC015
     FM222000 25006KT P6SM SCT015 BKN025
     FM222200 28007KT P6SM SCT025 BKN050=



000
FTUS46 KPQR 220523
TAFTTD
TAF
KTTD 220523Z 2206/2306 VRB04KT P6SM VCSH SCT040 BKN100
     FM220900 00000KT P6SM OVC015
     FM221700 24003KT P6SM SCT015 OVC025
     FM221900 27004KT P6SM SCT025 SCT100=



000
FTUS46 KPQR 220523
TAFEUG
TAF
KEUG 220523Z 2206/2306 22006KT P6SM SHRA SCT025 BKN050
      TEMPO 2206/2209 SHRA BKN025
     FM221000 23005KT P6SM OVC015
     FM222000 25006KT P6SM SCT015 BKN025
     FM222200 28007KT P6SM SCT025 BKN050=



000
FTUS46 KPQR 220523
TAFPDX
TAF
KPDX 220523Z 2206/2306 31005KT P6SM VCSH SCT040 BKN100
     FM220900 28004KT P6SM OVC015
     FM221700 25005KT P6SM SCT015 OVC025
     FM222000 30007KT P6SM SCT025 SCT100=



000
FTUS46 KPQR 220523
TAFHIO
TAF
KHIO 220523Z 2206/2306 29005KT P6SM VCSH SCT040 BKN100
     FM221000 00000KT P6SM OVC015
     FM221800 27003KT P6SM SCT015 OVC025
     FM222100 30004KT P6SM SCT025 SCT100=



000
FTUS46 KPQR 220523
TAFSLE
TAF
KSLE 220523Z 2206/2306 28006KT P6SM VCSH SCT050 BKN100
     FM220900 24005KT P6SM SCT009 OVC015
     FM222000 24005KT P6SM SCT015 OVC025
     FM222200 28005KT P6SM SCT025 SCT100=



000
FTUS46 KPQR 220523
TAFAST
TAF
KAST 220523Z 2206/2306 28006KT P6SM OVC008
     FM220800 26005KT 5SM BR OVC004
     FM221600 28005KT P6SM OVC006
     FM222100 28008KT P6SM OVC010
     FM230100 27005KT P6SM OVC007=



000
FTUS46 KPQR 220523
TAFONP
TAF
KONP 220523Z 2206/2306 30003KT 2SM BR OVC005
     FM222100 31008KT 4SM BR OVC007=



000
FTUS46 KPQR 220523
TAFTTD
TAF
KTTD 220523Z 2206/2306 VRB04KT P6SM VCSH SCT040 BKN100
     FM220900 00000KT P6SM OVC015
     FM221700 24003KT P6SM SCT015 OVC025
     FM221900 27004KT P6SM SCT025 SCT100=



000
FTUS46 KPQR 220523
TAFONP
TAF
KONP 220523Z 2206/2306 30003KT 2SM BR OVC005
     FM222100 31008KT 4SM BR OVC007=



000
FTUS46 KPQR 220523
TAFTTD
TAF
KTTD 220523Z 2206/2306 VRB04KT P6SM VCSH SCT040 BKN100
     FM220900 00000KT P6SM OVC015
     FM221700 24003KT P6SM SCT015 OVC025
     FM221900 27004KT P6SM SCT025 SCT100=



000
FTUS46 KPQR 220523
TAFEUG
TAF
KEUG 220523Z 2206/2306 22006KT P6SM SHRA SCT025 BKN050
      TEMPO 2206/2209 SHRA BKN025
     FM221000 23005KT P6SM OVC015
     FM222000 25006KT P6SM SCT015 BKN025
     FM222200 28007KT P6SM SCT025 BKN050=



000
FTUS46 KPQR 220523
TAFHIO
TAF
KHIO 220523Z 2206/2306 29005KT P6SM VCSH SCT040 BKN100
     FM221000 00000KT P6SM OVC015
     FM221800 27003KT P6SM SCT015 OVC025
     FM222100 30004KT P6SM SCT025 SCT100=



000
FTUS46 KPQR 220523
TAFPDX
TAF
KPDX 220523Z 2206/2306 31005KT P6SM VCSH SCT040 BKN100
     FM220900 28004KT P6SM OVC015
     FM221700 25005KT P6SM SCT015 OVC025
     FM222000 30007KT P6SM SCT025 SCT100=



000
FTUS46 KPQR 220523
TAFEUG
TAF
KEUG 220523Z 2206/2306 22006KT P6SM SHRA SCT025 BKN050
      TEMPO 2206/2209 SHRA BKN025
     FM221000 23005KT P6SM OVC015
     FM222000 25006KT P6SM SCT015 BKN025
     FM222200 28007KT P6SM SCT025 BKN050=



000
FTUS46 KPQR 220523
TAFAST
TAF
KAST 220523Z 2206/2306 28006KT P6SM OVC008
     FM220800 26005KT 5SM BR OVC004
     FM221600 28005KT P6SM OVC006
     FM222100 28008KT P6SM OVC010
     FM230100 27005KT P6SM OVC007=



000
FTUS46 KPQR 220523
TAFSLE
TAF
KSLE 220523Z 2206/2306 28006KT P6SM VCSH SCT050 BKN100
     FM220900 24005KT P6SM SCT009 OVC015
     FM222000 24005KT P6SM SCT015 OVC025
     FM222200 28005KT P6SM SCT025 SCT100=



000
FTUS46 KPQR 220523
TAFPDX
TAF
KPDX 220523Z 2206/2306 31005KT P6SM VCSH SCT040 BKN100
     FM220900 28004KT P6SM OVC015
     FM221700 25005KT P6SM SCT015 OVC025
     FM222000 30007KT P6SM SCT025 SCT100=



000
FTUS46 KPQR 220523
TAFTTD
TAF
KTTD 220523Z 2206/2306 VRB04KT P6SM VCSH SCT040 BKN100
     FM220900 00000KT P6SM OVC015
     FM221700 24003KT P6SM SCT015 OVC025
     FM221900 27004KT P6SM SCT025 SCT100=



000
FTUS46 KPQR 220523
TAFHIO
TAF
KHIO 220523Z 2206/2306 29005KT P6SM VCSH SCT040 BKN100
     FM221000 00000KT P6SM OVC015
     FM221800 27003KT P6SM SCT015 OVC025
     FM222100 30004KT P6SM SCT025 SCT100=



000
FTUS46 KPQR 220523
TAFSLE
TAF
KSLE 220523Z 2206/2306 28006KT P6SM VCSH SCT050 BKN100
     FM220900 24005KT P6SM SCT009 OVC015
     FM222000 24005KT P6SM SCT015 OVC025
     FM222200 28005KT P6SM SCT025 SCT100=



000
FTUS46 KPQR 220523
TAFAST
TAF
KAST 220523Z 2206/2306 28006KT P6SM OVC008
     FM220800 26005KT 5SM BR OVC004
     FM221600 28005KT P6SM OVC006
     FM222100 28008KT P6SM OVC010
     FM230100 27005KT P6SM OVC007=



000
FTUS46 KPQR 220523
TAFONP
TAF
KONP 220523Z 2206/2306 30003KT 2SM BR OVC005
     FM222100 31008KT 4SM BR OVC007=



000
FTUS46 KPQR 220310 AAA
TAFPDX
TAF AMD
KPDX 220310Z 2203/2224 31005KT P6SM SHRA SCT025 BKN100
     FM220900 28004KT P6SM OVC015
     FM221700 25005KT P6SM SCT015 OVC025
     FM222000 28005KT P6SM SCT025 SCT100=



000
FTUS46 KPQR 220310 AAA
TAFPDX
TAF AMD
KPDX 220310Z 2203/2224 31005KT P6SM SHRA SCT025 BKN100
     FM220900 28004KT P6SM OVC015
     FM221700 25005KT P6SM SCT015 OVC025
     FM222000 28005KT P6SM SCT025 SCT100=



000
FTUS46 KPQR 220310 AAA
TAFPDX
TAF AMD
KPDX 220310Z 2203/2224 31005KT P6SM SHRA SCT025 BKN100
     FM220900 28004KT P6SM OVC015
     FM221700 25005KT P6SM SCT015 OVC025
     FM222000 28005KT P6SM SCT025 SCT100=



000
FTUS46 KPQR 220310 AAA
TAFPDX
TAF AMD
KPDX 220310Z 2203/2224 31005KT P6SM SHRA SCT025 BKN100
     FM220900 28004KT P6SM OVC015
     FM221700 25005KT P6SM SCT015 OVC025
     FM222000 28005KT P6SM SCT025 SCT100=



000
FTUS46 KPQR 220236 AAA
TAFHIO
TAF AMD
KHIO 220236Z 2203/2224 31008KT P6SM -TSRA BKN040CB
     FM220400 31005KT P6SM VCSH BKN050
     FM220800 00000KT P6SM OVC015
     FM222100 30004KT P6SM SCT015 SCT100=



000
FTUS46 KPQR 212320
TAFEUG
TAF
KEUG 212320Z 2200/2224 22005KT P6SM SHRA SCT025 BKN050
     FM220900 23005KT P6SM OVC015
     FM222000 28006KT P6SM SCT020 SCT050=



000
FTUS46 KPQR 212320
TAFPDX
TAF
KPDX 212320Z 2200/2224 31005KT P6SM SHRA SCT025 BKN100
     FM220700 28004KT P6SM OVC015
     FM221900 25005KT P6SM SCT020 SCT100=



000
FTUS46 KPQR 212320
TAFTTD
TAF
KTTD 212320Z 2200/2224 VRB04KT P6SM SHRA SCT025 BKN100
     FM220700 00000KT P6SM OVC015
     FM221900 24004KT P6SM SCT020 SCT100=



000
FTUS46 KPQR 212320
TAFTTD
TAF
KTTD 212320Z 2200/2224 VRB04KT P6SM SHRA SCT025 BKN100
     FM220700 00000KT P6SM OVC015
     FM221900 24004KT P6SM SCT020 SCT100=



000
FTUS46 KPQR 212320
TAFHIO
TAF
KHIO 212320Z 2200/2224 31005KT P6SM SHRA SCT025 BKN100
     FM220800 00000KT P6SM OVC015
     FM222100 30004KT P6SM SCT015 SCT100=



000
FTUS46 KPQR 212320
TAFONP
TAF
KONP 212320Z 2200/2224 26005KT 1SM BR OVC002
     FM220500 30005KT 3SM BR OVC003
     FM222100 31008KT 4SM BR OVC003=



000
FTUS46 KPQR 212320
TAFSLE
TAF
KSLE 212320Z 2200/2224 28006KT P6SM SHRA SCT025 BKN050
     FM220800 24005KT P6SM SCT009 OVC015
     FM222100 24005KT P6SM SCT020 SCT050=



000
FTUS46 KPQR 212320
TAFTTD
TAF
KTTD 212320Z 2200/2224 VRB04KT P6SM SHRA SCT025 BKN100
     FM220700 00000KT P6SM OVC015
     FM221900 24004KT P6SM SCT020 SCT100=



000
FTUS46 KPQR 212320
TAFEUG
TAF
KEUG 212320Z 2200/2224 22005KT P6SM SHRA SCT025 BKN050
     FM220900 23005KT P6SM OVC015
     FM222000 28006KT P6SM SCT020 SCT050=



000
FTUS46 KPQR 212320
TAFSLE
TAF
KSLE 212320Z 2200/2224 28006KT P6SM SHRA SCT025 BKN050
     FM220800 24005KT P6SM SCT009 OVC015
     FM222100 24005KT P6SM SCT020 SCT050=



000
FTUS46 KPQR 212320
TAFAST
TAF
KAST 212320Z 2200/2224 29008KT P6SM OVC010
     FM220100 28006KT P6SM OVC006
     FM220700 26005KT 5SM BR OVC004
     FM221600 28005KT P6SM OVC006
     FM222100 28008KT P6SM OVC010=



000
FTUS46 KPQR 212320
TAFHIO
TAF
KHIO 212320Z 2200/2224 31005KT P6SM SHRA SCT025 BKN100
     FM220800 00000KT P6SM OVC015
     FM222100 30004KT P6SM SCT015 SCT100=



000
FTUS46 KPQR 212320
TAFPDX
TAF
KPDX 212320Z 2200/2224 31005KT P6SM SHRA SCT025 BKN100
     FM220700 28004KT P6SM OVC015
     FM221900 25005KT P6SM SCT020 SCT100=



000
FTUS46 KPQR 212320
TAFONP
TAF
KONP 212320Z 2200/2224 26005KT 1SM BR OVC002
     FM220500 30005KT 3SM BR OVC003
     FM222100 31008KT 4SM BR OVC003=



000
FTUS46 KPQR 212320
TAFTTD
TAF
KTTD 212320Z 2200/2224 VRB04KT P6SM SHRA SCT025 BKN100
     FM220700 00000KT P6SM OVC015
     FM221900 24004KT P6SM SCT020 SCT100=



000
FTUS46 KPQR 212320
TAFEUG
TAF
KEUG 212320Z 2200/2224 22005KT P6SM SHRA SCT025 BKN050
     FM220900 23005KT P6SM OVC015
     FM222000 28006KT P6SM SCT020 SCT050=



000
FTUS46 KPQR 212320
TAFAST
TAF
KAST 212320Z 2200/2224 29008KT P6SM OVC010
     FM220100 28006KT P6SM OVC006
     FM220700 26005KT 5SM BR OVC004
     FM221600 28005KT P6SM OVC006
     FM222100 28008KT P6SM OVC010=



000
FTUS46 KPQR 212320
TAFPDX
TAF
KPDX 212320Z 2200/2224 31005KT P6SM SHRA SCT025 BKN100
     FM220700 28004KT P6SM OVC015
     FM221900 25005KT P6SM SCT020 SCT100=



000
FTUS46 KPQR 212320
TAFHIO
TAF
KHIO 212320Z 2200/2224 31005KT P6SM SHRA SCT025 BKN100
     FM220800 00000KT P6SM OVC015
     FM222100 30004KT P6SM SCT015 SCT100=



000
FTUS46 KPQR 212320
TAFONP
TAF
KONP 212320Z 2200/2224 26005KT 1SM BR OVC002
     FM220500 30005KT 3SM BR OVC003
     FM222100 31008KT 4SM BR OVC003=



000
FTUS46 KPQR 212320
TAFPDX
TAF
KPDX 212320Z 2200/2224 31005KT P6SM SHRA SCT025 BKN100
     FM220700 28004KT P6SM OVC015
     FM221900 25005KT P6SM SCT020 SCT100=



000
FTUS46 KPQR 212320
TAFONP
TAF
KONP 212320Z 2200/2224 26005KT 1SM BR OVC002
     FM220500 30005KT 3SM BR OVC003
     FM222100 31008KT 4SM BR OVC003=



000
FTUS46 KPQR 212320
TAFHIO
TAF
KHIO 212320Z 2200/2224 31005KT P6SM SHRA SCT025 BKN100
     FM220800 00000KT P6SM OVC015
     FM222100 30004KT P6SM SCT015 SCT100=



000
FTUS46 KPQR 212320
TAFEUG
TAF
KEUG 212320Z 2200/2224 22005KT P6SM SHRA SCT025 BKN050
     FM220900 23005KT P6SM OVC015
     FM222000 28006KT P6SM SCT020 SCT050=



000
FTUS46 KPQR 212320
TAFAST
TAF
KAST 212320Z 2200/2224 29008KT P6SM OVC010
     FM220100 28006KT P6SM OVC006
     FM220700 26005KT 5SM BR OVC004
     FM221600 28005KT P6SM OVC006
     FM222100 28008KT P6SM OVC010=



000
FTUS46 KPQR 212320
TAFSLE
TAF
KSLE 212320Z 2200/2224 28006KT P6SM SHRA SCT025 BKN050
     FM220800 24005KT P6SM SCT009 OVC015
     FM222100 24005KT P6SM SCT020 SCT050=



000
FTUS46 KPQR 212320
TAFSLE
TAF
KSLE 212320Z 2200/2224 28006KT P6SM SHRA SCT025 BKN050
     FM220800 24005KT P6SM SCT009 OVC015
     FM222100 24005KT P6SM SCT020 SCT050=



000
FTUS46 KPQR 212320
TAFAST
TAF
KAST 212320Z 2200/2224 29008KT P6SM OVC010
     FM220100 28006KT P6SM OVC006
     FM220700 26005KT 5SM BR OVC004
     FM221600 28005KT P6SM OVC006
     FM222100 28008KT P6SM OVC010=



000
FTUS46 KPQR 212157 AAB
TAFONP
TAF AMD
KONP 212157Z 2122/2218 30005KT 1SM BR VCSH BKN004
     FM220100 33006KT P6SM OVC006
     FM220500 30005KT 4SM BR OVC003
     FM221300 25005KT 6SM BR OVC007=



000
FTUS46 KPQR 212157 AAB
TAFONP
TAF AMD
KONP 212157Z 2122/2218 30005KT 1SM BR VCSH BKN004
     FM220100 33006KT P6SM OVC006
     FM220500 30005KT 4SM BR OVC003
     FM221300 25005KT 6SM BR OVC007=



000
FTUS46 KPQR 212157 AAB
TAFONP
TAF AMD
KONP 212157Z 2122/2218 30005KT 1SM BR VCSH BKN004
     FM220100 33006KT P6SM OVC006
     FM220500 30005KT 4SM BR OVC003
     FM221300 25005KT 6SM BR OVC007=



000
FTUS46 KPQR 212157 AAB
TAFONP
TAF AMD
KONP 212157Z 2122/2218 30005KT 1SM BR VCSH BKN004
     FM220100 33006KT P6SM OVC006
     FM220500 30005KT 4SM BR OVC003
     FM221300 25005KT 6SM BR OVC007=



000
FTUS46 KPQR 212057 AAA
TAFPDX
TAF AMD
KPDX 212057Z 2121/2218 33005KT P6SM VCSH SCT025 BKN035 BKN110
     FM220000 31005KT P6SM SHRA SCT025 BKN050
     FM220700 28004KT P6SM OVC020=



000
FTUS46 KPQR 212003 AAA
TAFONP
TAF AMD
KONP 212003Z 2120/2218 30005KT P6SM VCSH BKN010
      TEMPO 2120/2122 5SM BR BKN004
     FM220100 33006KT P6SM OVC006
     FM220500 30005KT 4SM BR OVC003
     FM221300 25005KT 6SM BR OVC007=



000
FTUS46 KPQR 212003 AAA
TAFONP
TAF AMD
KONP 212003Z 2120/2218 30005KT P6SM VCSH BKN010
      TEMPO 2120/2122 5SM BR BKN004
     FM220100 33006KT P6SM OVC006
     FM220500 30005KT 4SM BR OVC003
     FM221300 25005KT 6SM BR OVC007=



000
FTUS46 KPQR 211803 AAA
TAFHIO
TAF AMD
KHIO 211803Z 2118/2218 00000KT P6SM SCT015 OVC030
     FM212100 31003KT P6SM VCSH BKN035 BKN150
     FM220000 31005KT P6SM SHRA SCT025 BKN050
     FM220800 00000KT P6SM OVC015=



000
FTUS46 KPQR 211803 AAA
TAFHIO
TAF AMD
KHIO 211803Z 2118/2218 00000KT P6SM SCT015 OVC030
     FM212100 31003KT P6SM VCSH BKN035 BKN150
     FM220000 31005KT P6SM SHRA SCT025 BKN050
     FM220800 00000KT P6SM OVC015=



000
FTUS46 KPQR 211803 AAA
TAFHIO
TAF AMD
KHIO 211803Z 2118/2218 00000KT P6SM SCT015 OVC030
     FM212100 31003KT P6SM VCSH BKN035 BKN150
     FM220000 31005KT P6SM SHRA SCT025 BKN050
     FM220800 00000KT P6SM OVC015=



000
FTUS46 KPQR 211803 AAA
TAFHIO
TAF AMD
KHIO 211803Z 2118/2218 00000KT P6SM SCT015 OVC030
     FM212100 31003KT P6SM VCSH BKN035 BKN150
     FM220000 31005KT P6SM SHRA SCT025 BKN050
     FM220800 00000KT P6SM OVC015=



000
FTUS46 KPQR 211803 AAA
TAFEUG
TAF AMD
KEUG 211803Z 2118/2218 VRB03KT P6SM SCT010 OVC030
     FM212100 30007KT P6SM VCSH BKN035 BKN100
     FM220200 21005KT P6SM SHRA SCT020 BKN035
     FM220900 23005KT P6SM OVC015=



000
FTUS46 KPQR 211803 AAA
TAFEUG
TAF AMD
KEUG 211803Z 2118/2218 VRB03KT P6SM SCT010 OVC030
     FM212100 30007KT P6SM VCSH BKN035 BKN100
     FM220200 21005KT P6SM SHRA SCT020 BKN035
     FM220900 23005KT P6SM OVC015=



000
FTUS46 KPQR 211803 AAA
TAFEUG
TAF AMD
KEUG 211803Z 2118/2218 VRB03KT P6SM SCT010 OVC030
     FM212100 30007KT P6SM VCSH BKN035 BKN100
     FM220200 21005KT P6SM SHRA SCT020 BKN035
     FM220900 23005KT P6SM OVC015=



000
FTUS46 KPQR 211803 AAA
TAFEUG
TAF AMD
KEUG 211803Z 2118/2218 VRB03KT P6SM SCT010 OVC030
     FM212100 30007KT P6SM VCSH BKN035 BKN100
     FM220200 21005KT P6SM SHRA SCT020 BKN035
     FM220900 23005KT P6SM OVC015=



000
FTUS46 KPQR 211802 AAA
TAFPDX
TAF AMD
KPDX 211802Z 2118/2218 30005KT P6SM SCT015 OVC030
     FM212000 30003KT P6SM VCSH BKN035 BKN150
     FM220000 31005KT P6SM SHRA SCT025 BKN050
     FM220700 28004KT P6SM OVC020=



000
FTUS46 KPQR 211802 AAA
TAFPDX
TAF AMD
KPDX 211802Z 2118/2218 30005KT P6SM SCT015 OVC030
     FM212000 30003KT P6SM VCSH BKN035 BKN150
     FM220000 31005KT P6SM SHRA SCT025 BKN050
     FM220700 28004KT P6SM OVC020=



000
FTUS46 KPQR 211802 AAA
TAFPDX
TAF AMD
KPDX 211802Z 2118/2218 30005KT P6SM SCT015 OVC030
     FM212000 30003KT P6SM VCSH BKN035 BKN150
     FM220000 31005KT P6SM SHRA SCT025 BKN050
     FM220700 28004KT P6SM OVC020=



000
FTUS46 KPQR 211802 AAA
TAFPDX
TAF AMD
KPDX 211802Z 2118/2218 30005KT P6SM SCT015 OVC030
     FM212000 30003KT P6SM VCSH BKN035 BKN150
     FM220000 31005KT P6SM SHRA SCT025 BKN050
     FM220700 28004KT P6SM OVC020=



000
FTUS46 KPQR 211720
TAFHIO
TAF
KHIO 211720Z 2118/2218 00000KT P6SM BKN015 OVC030
     FM212100 31003KT P6SM VCSH BKN035 BKN150
     FM220000 31005KT P6SM SHRA SCT025 BKN050
     FM220800 00000KT P6SM OVC015=



000
FTUS46 KPQR 211720
TAFPDX
TAF
KPDX 211720Z 2118/2218 30005KT P6SM OVC015
     FM212000 30003KT P6SM VCSH BKN035 BKN150
     FM220000 31005KT P6SM SHRA SCT025 BKN050
     FM220700 28004KT P6SM OVC020=



000
FTUS46 KPQR 211720
TAFHIO
TAF
KHIO 211720Z 2118/2218 00000KT P6SM BKN015 OVC030
     FM212100 31003KT P6SM VCSH BKN035 BKN150
     FM220000 31005KT P6SM SHRA SCT025 BKN050
     FM220800 00000KT P6SM OVC015=



000
FTUS46 KPQR 211720
TAFSLE
TAF
KSLE 211720Z 2118/2218 VRB03KT P6SM BKN012 OVC100
     FM212100 29006KT P6SM VCSH BKN035 BKN100
     FM220200 28006KT P6SM SHRA SCT020 BKN035
     FM220800 22005KT P6SM OVC015=



000
FTUS46 KPQR 211720
TAFONP
TAF
KONP 211720Z 2118/2218 32005KT 6SM BR VCSH BKN005 OVC010
     FM212000 33010KT P6SM VCSH BKN010
     FM220100 33006KT P6SM OVC006
     FM220500 30005KT 4SM BR OVC003
     FM221300 25005KT 6SM BR OVC007=



000
FTUS46 KPQR 211720
TAFEUG
TAF
KEUG 211720Z 2118/2218 VRB03KT P6SM OVC010
     FM212100 30007KT P6SM VCSH BKN035 BKN100
     FM220200 21005KT P6SM SHRA SCT020 BKN035
     FM220900 23005KT P6SM OVC015=



000
FTUS46 KPQR 211720
TAFPDX
TAF
KPDX 211720Z 2118/2218 30005KT P6SM OVC015
     FM212000 30003KT P6SM VCSH BKN035 BKN150
     FM220000 31005KT P6SM SHRA SCT025 BKN050
     FM220700 28004KT P6SM OVC020=



000
FTUS46 KPQR 211720
TAFONP
TAF
KONP 211720Z 2118/2218 32005KT 6SM BR VCSH BKN005 OVC010
     FM212000 33010KT P6SM VCSH BKN010
     FM220100 33006KT P6SM OVC006
     FM220500 30005KT 4SM BR OVC003
     FM221300 25005KT 6SM BR OVC007=



000
FTUS46 KPQR 211720
TAFAST
TAF
KAST 211720Z 2118/2218 28008KT P6SM BKN006 OVC010
     FM212100 28008KT P6SM BKN010
     FM220100 28006KT P6SM OVC006
     FM220700 26005KT 5SM BR OVC005=



000
FTUS46 KPQR 211720
TAFEUG
TAF
KEUG 211720Z 2118/2218 VRB03KT P6SM OVC010
     FM212100 30007KT P6SM VCSH BKN035 BKN100
     FM220200 21005KT P6SM SHRA SCT020 BKN035
     FM220900 23005KT P6SM OVC015=



000
FTUS46 KPQR 211720
TAFAST
TAF
KAST 211720Z 2118/2218 28008KT P6SM BKN006 OVC010
     FM212100 28008KT P6SM BKN010
     FM220100 28006KT P6SM OVC006
     FM220700 26005KT 5SM BR OVC005=



000
FTUS46 KPQR 211720
TAFSLE
TAF
KSLE 211720Z 2118/2218 VRB03KT P6SM BKN012 OVC100
     FM212100 29006KT P6SM VCSH BKN035 BKN100
     FM220200 28006KT P6SM SHRA SCT020 BKN035
     FM220800 22005KT P6SM OVC015=



000
FTUS46 KPQR 211720
TAFTTD
TAF
KTTD 211720Z 2118/2218 VRB03KT P6SM OVC015
     FM212000 25003KT P6SM VCSH BKN035 BKN150
     FM220000 27004KT P6SM SHRA SCT025 BKN050
     FM220700 00000KT P6SM OVC015=



000
FTUS46 KPQR 211720
TAFTTD
TAF
KTTD 211720Z 2118/2218 VRB03KT P6SM OVC015
     FM212000 25003KT P6SM VCSH BKN035 BKN150
     FM220000 27004KT P6SM SHRA SCT025 BKN050
     FM220700 00000KT P6SM OVC015=



000
FTUS46 KPQR 211720
TAFHIO
TAF
KHIO 211720Z 2118/2218 00000KT P6SM BKN015 OVC030
     FM212100 31003KT P6SM VCSH BKN035 BKN150
     FM220000 31005KT P6SM SHRA SCT025 BKN050
     FM220800 00000KT P6SM OVC015=



000
FTUS46 KPQR 211720
TAFSLE
TAF
KSLE 211720Z 2118/2218 VRB03KT P6SM BKN012 OVC100
     FM212100 29006KT P6SM VCSH BKN035 BKN100
     FM220200 28006KT P6SM SHRA SCT020 BKN035
     FM220800 22005KT P6SM OVC015=



000
FTUS46 KPQR 211720
TAFONP
TAF
KONP 211720Z 2118/2218 32005KT 6SM BR VCSH BKN005 OVC010
     FM212000 33010KT P6SM VCSH BKN010
     FM220100 33006KT P6SM OVC006
     FM220500 30005KT 4SM BR OVC003
     FM221300 25005KT 6SM BR OVC007=



000
FTUS46 KPQR 211720
TAFPDX
TAF
KPDX 211720Z 2118/2218 30005KT P6SM OVC015
     FM212000 30003KT P6SM VCSH BKN035 BKN150
     FM220000 31005KT P6SM SHRA SCT025 BKN050
     FM220700 28004KT P6SM OVC020=



000
FTUS46 KPQR 211720
TAFEUG
TAF
KEUG 211720Z 2118/2218 VRB03KT P6SM OVC010
     FM212100 30007KT P6SM VCSH BKN035 BKN100
     FM220200 21005KT P6SM SHRA SCT020 BKN035
     FM220900 23005KT P6SM OVC015=



000
FTUS46 KPQR 211720
TAFEUG
TAF
KEUG 211720Z 2118/2218 VRB03KT P6SM OVC010
     FM212100 30007KT P6SM VCSH BKN035 BKN100
     FM220200 21005KT P6SM SHRA SCT020 BKN035
     FM220900 23005KT P6SM OVC015=



000
FTUS46 KPQR 211720
TAFAST
TAF
KAST 211720Z 2118/2218 28008KT P6SM BKN006 OVC010
     FM212100 28008KT P6SM BKN010
     FM220100 28006KT P6SM OVC006
     FM220700 26005KT 5SM BR OVC005=



000
FTUS46 KPQR 211720
TAFTTD
TAF
KTTD 211720Z 2118/2218 VRB03KT P6SM OVC015
     FM212000 25003KT P6SM VCSH BKN035 BKN150
     FM220000 27004KT P6SM SHRA SCT025 BKN050
     FM220700 00000KT P6SM OVC015=



000
FTUS46 KPQR 211720
TAFHIO
TAF
KHIO 211720Z 2118/2218 00000KT P6SM BKN015 OVC030
     FM212100 31003KT P6SM VCSH BKN035 BKN150
     FM220000 31005KT P6SM SHRA SCT025 BKN050
     FM220800 00000KT P6SM OVC015=



000
FTUS46 KPQR 211720
TAFPDX
TAF
KPDX 211720Z 2118/2218 30005KT P6SM OVC015
     FM212000 30003KT P6SM VCSH BKN035 BKN150
     FM220000 31005KT P6SM SHRA SCT025 BKN050
     FM220700 28004KT P6SM OVC020=



000
FTUS46 KPQR 211720
TAFTTD
TAF
KTTD 211720Z 2118/2218 VRB03KT P6SM OVC015
     FM212000 25003KT P6SM VCSH BKN035 BKN150
     FM220000 27004KT P6SM SHRA SCT025 BKN050
     FM220700 00000KT P6SM OVC015=



000
FTUS46 KPQR 211720
TAFONP
TAF
KONP 211720Z 2118/2218 32005KT 6SM BR VCSH BKN005 OVC010
     FM212000 33010KT P6SM VCSH BKN010
     FM220100 33006KT P6SM OVC006
     FM220500 30005KT 4SM BR OVC003
     FM221300 25005KT 6SM BR OVC007=



000
FTUS46 KPQR 211720
TAFAST
TAF
KAST 211720Z 2118/2218 28008KT P6SM BKN006 OVC010
     FM212100 28008KT P6SM BKN010
     FM220100 28006KT P6SM OVC006
     FM220700 26005KT 5SM BR OVC005=



000
FTUS46 KPQR 211720
TAFSLE
TAF
KSLE 211720Z 2118/2218 VRB03KT P6SM BKN012 OVC100
     FM212100 29006KT P6SM VCSH BKN035 BKN100
     FM220200 28006KT P6SM SHRA SCT020 BKN035
     FM220800 22005KT P6SM OVC015=



000
FTUS46 KPQR 211459 AAA
TAFPDX
TAF AMD
KPDX 211459Z 2115/2212 31003KT P6SM OVC014
     FM211900 30003KT P6SM SCT035 BKN150
     FM220000 31005KT P6SM VCSH SCT050 BKN120
     FM220600 28004KT P6SM SCT120=



000
FTUS46 KPQR 211345 AAA
TAFONP
TAF AMD
KONP 211345Z 2114/2212 35003KT 3/4SM BR OVC004
      TEMPO 2114/2116 2SM -SHRA BR OVC003
     FM211600 35005KT 3SM BR OVC005
     FM211800 33008KT P6SM SCT005 OVC010
     FM212100 33010KT P6SM SCT012
     FM220100 33006KT P6SM OVC007
     FM220400 30005KT 4SM BR OVC003=



000
FTUS46 KPQR 211345 AAA
TAFONP
TAF AMD
KONP 211345Z 2114/2212 35003KT 3/4SM BR OVC004
      TEMPO 2114/2116 2SM -SHRA BR OVC003
     FM211600 35005KT 3SM BR OVC005
     FM211800 33008KT P6SM SCT005 OVC010
     FM212100 33010KT P6SM SCT012
     FM220100 33006KT P6SM OVC007
     FM220400 30005KT 4SM BR OVC003=



000
FTUS46 KPQR 211345 AAA
TAFONP
TAF AMD
KONP 211345Z 2114/2212 35003KT 3/4SM BR OVC004
      TEMPO 2114/2116 2SM -SHRA BR OVC003
     FM211600 35005KT 3SM BR OVC005
     FM211800 33008KT P6SM SCT005 OVC010
     FM212100 33010KT P6SM SCT012
     FM220100 33006KT P6SM OVC007
     FM220400 30005KT 4SM BR OVC003=



000
FTUS46 KPQR 211345 AAA
TAFONP
TAF AMD
KONP 211345Z 2114/2212 35003KT 3/4SM BR OVC004
      TEMPO 2114/2116 2SM -SHRA BR OVC003
     FM211600 35005KT 3SM BR OVC005
     FM211800 33008KT P6SM SCT005 OVC010
     FM212100 33010KT P6SM SCT012
     FM220100 33006KT P6SM OVC007
     FM220400 30005KT 4SM BR OVC003=



000
FTUS46 KPQR 211330 AAA
TAFSLE
TAF AMD
KSLE 211330Z 2114/2212 00000KT P6SM SCT012 BKN100
      TEMPO 2114/2117 BKN009
     FM211900 VRB03KT P6SM SCT030 BKN120
     FM212300 29006KT P6SM VCSH SCT050 BKN100
     FM220600 19004KT P6SM SCT120=



000
FTUS46 KPQR 211330 AAA
TAFSLE
TAF AMD
KSLE 211330Z 2114/2212 00000KT P6SM SCT012 BKN100
      TEMPO 2114/2117 BKN009
     FM211900 VRB03KT P6SM SCT030 BKN120
     FM212300 29006KT P6SM VCSH SCT050 BKN100
     FM220600 19004KT P6SM SCT120=



000
FTUS46 KPQR 211330 AAA
TAFSLE
TAF AMD
KSLE 211330Z 2114/2212 00000KT P6SM SCT012 BKN100
      TEMPO 2114/2117 BKN009
     FM211900 VRB03KT P6SM SCT030 BKN120
     FM212300 29006KT P6SM VCSH SCT050 BKN100
     FM220600 19004KT P6SM SCT120=



000
FTUS46 KPQR 211330 AAA
TAFSLE
TAF AMD
KSLE 211330Z 2114/2212 00000KT P6SM SCT012 BKN100
      TEMPO 2114/2117 BKN009
     FM211900 VRB03KT P6SM SCT030 BKN120
     FM212300 29006KT P6SM VCSH SCT050 BKN100
     FM220600 19004KT P6SM SCT120=



000
FTUS46 KPQR 211127
TAFONP
TAF
KONP 211127Z 2112/2212 35005KT 5SM BR OVC003
      TEMPO 2112/2116 P6SM -SHRA
     FM211800 33008KT P6SM SCT005 OVC010
     FM212100 33010KT P6SM SCT012
     FM220100 33006KT P6SM OVC007
     FM220400 30005KT 4SM BR OVC003=



000
FTUS46 KPQR 211127
TAFEUG
TAF
KEUG 211127Z 2112/2212 21004KT P6SM BKN011
      TEMPO 2112/2116 SCT011 BKN090
     FM211600 VRB03KT P6SM SCT025 BKN100
     FM212200 30007KT P6SM VCSH SCT050 BKN100
     FM220500 21005KT P6SM SCT120=



000
FTUS46 KPQR 211127
TAFTTD
TAF
KTTD 211127Z 2112/2212 00000KT P6SM BKN120
     FM211400 29003KT P6SM OVC012
     FM211900 29003KT P6SM SCT035 BKN150
     FM220000 29004KT P6SM VCSH SCT050 BKN120
     FM220600 28003KT P6SM SCT120=



000
FTUS46 KPQR 211127
TAFPDX
TAF
KPDX 211127Z 2112/2212 30004KT P6SM BKN120
     FM211400 31003KT P6SM OVC012
     FM211900 30003KT P6SM SCT035 BKN150
     FM220000 31005KT P6SM VCSH SCT050 BKN120
     FM220600 28004KT P6SM SCT120=



000
FTUS46 KPQR 211127
TAFPDX
TAF
KPDX 211127Z 2112/2212 30004KT P6SM BKN120
     FM211400 31003KT P6SM OVC012
     FM211900 30003KT P6SM SCT035 BKN150
     FM220000 31005KT P6SM VCSH SCT050 BKN120
     FM220600 28004KT P6SM SCT120=



000
FTUS46 KPQR 211127
TAFSLE
TAF
KSLE 211127Z 2112/2212 00000KT P6SM SCT012 BKN100
      TEMPO 2112/2116 BKN012
     FM211900 VRB03KT P6SM SCT030 BKN120
     FM212300 29006KT P6SM VCSH SCT050 BKN100
     FM220600 19004KT P6SM SCT120=



000
FTUS46 KPQR 211127
TAFHIO
TAF
KHIO 211127Z 2112/2212 00000KT P6SM BKN120
     FM211400 00000KT P6SM SCT012 BKN150
     FM211900 29003KT P6SM SCT035 BKN150
     FM220000 31005KT P6SM VCSH SCT050 BKN120
     FM220600 VRB02KT P6SM SCT120=



000
FTUS46 KPQR 211127
TAFAST
TAF
KAST 211127Z 2112/2212 30006KT P6SM OVC004
      TEMPO 2112/2115 4SM BR
     FM211700 28008KT P6SM SCT005 OVC010
     FM212100 28008KT P6SM SCT010
     FM220100 28006KT P6SM OVC006=



000
FTUS46 KPQR 211127
TAFEUG
TAF
KEUG 211127Z 2112/2212 21004KT P6SM BKN011
      TEMPO 2112/2116 SCT011 BKN090
     FM211600 VRB03KT P6SM SCT025 BKN100
     FM212200 30007KT P6SM VCSH SCT050 BKN100
     FM220500 21005KT P6SM SCT120=



000
FTUS46 KPQR 211127
TAFAST
TAF
KAST 211127Z 2112/2212 30006KT P6SM OVC004
      TEMPO 2112/2115 4SM BR
     FM211700 28008KT P6SM SCT005 OVC010
     FM212100 28008KT P6SM SCT010
     FM220100 28006KT P6SM OVC006=



000
FTUS46 KPQR 211127
TAFHIO
TAF
KHIO 211127Z 2112/2212 00000KT P6SM BKN120
     FM211400 00000KT P6SM SCT012 BKN150
     FM211900 29003KT P6SM SCT035 BKN150
     FM220000 31005KT P6SM VCSH SCT050 BKN120
     FM220600 VRB02KT P6SM SCT120=



000
FTUS46 KPQR 211127
TAFTTD
TAF
KTTD 211127Z 2112/2212 00000KT P6SM BKN120
     FM211400 29003KT P6SM OVC012
     FM211900 29003KT P6SM SCT035 BKN150
     FM220000 29004KT P6SM VCSH SCT050 BKN120
     FM220600 28003KT P6SM SCT120=



000
FTUS46 KPQR 211127
TAFSLE
TAF
KSLE 211127Z 2112/2212 00000KT P6SM SCT012 BKN100
      TEMPO 2112/2116 BKN012
     FM211900 VRB03KT P6SM SCT030 BKN120
     FM212300 29006KT P6SM VCSH SCT050 BKN100
     FM220600 19004KT P6SM SCT120=



000
FTUS46 KPQR 211127
TAFONP
TAF
KONP 211127Z 2112/2212 35005KT 5SM BR OVC003
      TEMPO 2112/2116 P6SM -SHRA
     FM211800 33008KT P6SM SCT005 OVC010
     FM212100 33010KT P6SM SCT012
     FM220100 33006KT P6SM OVC007
     FM220400 30005KT 4SM BR OVC003=



000
FTUS46 KPQR 210911 AAA
TAFTTD
TAF AMD
KTTD 210911Z 2109/2206 VRB03KT P6SM BKN120
     FM211200 VRB03KT P6SM BKN015
     FM211800 VRB03KT P6SM SCT015
     FM212100 VRB03KT P6SM VCSH SCT050=



000
FTUS46 KPQR 210911 AAA
TAFTTD
TAF AMD
KTTD 210911Z 2109/2206 VRB03KT P6SM BKN120
     FM211200 VRB03KT P6SM BKN015
     FM211800 VRB03KT P6SM SCT015
     FM212100 VRB03KT P6SM VCSH SCT050=



000
FTUS46 KPQR 210911 AAA
TAFTTD
TAF AMD
KTTD 210911Z 2109/2206 VRB03KT P6SM BKN120
     FM211200 VRB03KT P6SM BKN015
     FM211800 VRB03KT P6SM SCT015
     FM212100 VRB03KT P6SM VCSH SCT050=



000
FTUS46 KPQR 210911 AAA
TAFTTD
TAF AMD
KTTD 210911Z 2109/2206 VRB03KT P6SM BKN120
     FM211200 VRB03KT P6SM BKN015
     FM211800 VRB03KT P6SM SCT015
     FM212100 VRB03KT P6SM VCSH SCT050=



000
FTUS46 KPQR 210910 AAA
TAFPDX
TAF AMD
KPDX 210910Z 2109/2206 30004KT P6SM FEW060 BKN120
     FM211200 32004KT P6SM OVC015
     FM211800 30003KT P6SM SCT015
     FM212100 31005KT P6SM VCSH SCT050=



000
FTUS46 KPQR 210910 AAA
TAFPDX
TAF AMD
KPDX 210910Z 2109/2206 30004KT P6SM FEW060 BKN120
     FM211200 32004KT P6SM OVC015
     FM211800 30003KT P6SM SCT015
     FM212100 31005KT P6SM VCSH SCT050=



000
FTUS46 KPQR 210910 AAA
TAFPDX
TAF AMD
KPDX 210910Z 2109/2206 30004KT P6SM FEW060 BKN120
     FM211200 32004KT P6SM OVC015
     FM211800 30003KT P6SM SCT015
     FM212100 31005KT P6SM VCSH SCT050=



000
FTUS46 KPQR 210910 AAA
TAFPDX
TAF AMD
KPDX 210910Z 2109/2206 30004KT P6SM FEW060 BKN120
     FM211200 32004KT P6SM OVC015
     FM211800 30003KT P6SM SCT015
     FM212100 31005KT P6SM VCSH SCT050=



000
FTUS46 KPQR 210833 AAA
TAFEUG
TAF AMD
KEUG 210833Z 2109/2206 19003KT P6SM BKN020 BKN060
     FM212000 23005KT P6SM VCSH SCT030 BKN120=



000
FTUS46 KPQR 210833 AAA
TAFEUG
TAF AMD
KEUG 210833Z 2109/2206 19003KT P6SM BKN020 BKN060
     FM212000 23005KT P6SM VCSH SCT030 BKN120=



000
FTUS46 KPQR 210833 AAA
TAFEUG
TAF AMD
KEUG 210833Z 2109/2206 19003KT P6SM BKN020 BKN060
     FM212000 23005KT P6SM VCSH SCT030 BKN120=



000
FTUS46 KPQR 210833 AAA
TAFEUG
TAF AMD
KEUG 210833Z 2109/2206 19003KT P6SM BKN020 BKN060
     FM212000 23005KT P6SM VCSH SCT030 BKN120=



000
FTUS46 KPQR 210719 AAA
TAFONP
TAF AMD
KONP 210719Z 2107/2206 35003KT 1SM BR OVC001
      TEMPO 2107/2108 2SM TSRA OVC003CB
     FM210900 33003KT 5SM BR OVC005
     FM211800 28008KT P6SM SCT005 OVC010
     FM212100 30008KT P6SM SCT012
     FM220000 33006KT P6SM OVC007
     FM220300 35003KT 4SM BR OVC003=



000
FTUS46 KPQR 210719 AAA
TAFONP
TAF AMD
KONP 210719Z 2107/2206 35003KT 1SM BR OVC001
      TEMPO 2107/2108 2SM TSRA OVC003CB
     FM210900 33003KT 5SM BR OVC005
     FM211800 28008KT P6SM SCT005 OVC010
     FM212100 30008KT P6SM SCT012
     FM220000 33006KT P6SM OVC007
     FM220300 35003KT 4SM BR OVC003=



000
FTUS46 KPQR 210719 AAA
TAFONP
TAF AMD
KONP 210719Z 2107/2206 35003KT 1SM BR OVC001
      TEMPO 2107/2108 2SM TSRA OVC003CB
     FM210900 33003KT 5SM BR OVC005
     FM211800 28008KT P6SM SCT005 OVC010
     FM212100 30008KT P6SM SCT012
     FM220000 33006KT P6SM OVC007
     FM220300 35003KT 4SM BR OVC003=



000
FTUS46 KPQR 210520
TAFTTD
TAF
KTTD 210520Z 2106/2206 VRB03KT P6SM VCSH SCT120
     FM210900 VRB03KT P6SM BKN015
     FM211800 VRB03KT P6SM SCT015
     FM212100 VRB03KT P6SM VCSH SCT050=



000
FTUS46 KPQR 210520
TAFSLE
TAF
KSLE 210520Z 2106/2206 19003KT P6SM VCSH SCT080 BKN120
     FM211200 19003KT P6SM BKN020
     FM211900 19003KT P6SM SCT020
     FM212100 23004KT P6SM VCSH BKN080=



000
FTUS46 KPQR 210520
TAFAST
TAF
KAST 210520Z 2106/2206 29006KT 6SM BR OVC005
     FM211700 28008KT P6SM SCT005 OVC010
     FM212100 26008KT P6SM SCT010
     FM220000 28006KT P6SM OVC006=



000
FTUS46 KPQR 210520
TAFONP
TAF
KONP 210520Z 2106/2206 35003KT 4SM BR OVC003
     FM210900 33003KT 5SM BR OVC005
     FM211800 28008KT P6SM SCT005 OVC010
     FM212100 30008KT P6SM SCT012
     FM220000 33006KT P6SM OVC007
     FM220300 35003KT 4SM BR OVC003=



000
FTUS46 KPQR 210520
TAFPDX
TAF
KPDX 210520Z 2106/2206 29007KT P6SM FEW060 SCT100
     FM211000 32004KT P6SM OVC015
     FM211800 30003KT P6SM SCT015
     FM212100 31005KT P6SM VCSH SCT050=



000
FTUS46 KPQR 210520
TAFHIO
TAF
KHIO 210520Z 2106/2206 VRB03KT P6SM SCT100
     FM211200 VRB03KT P6SM BKN020
     FM211800 VRB03KT P6SM SCT020
     FM212100 29005KT P6SM VCSH SCT050=



000
FTUS46 KPQR 210520
TAFAST
TAF
KAST 210520Z 2106/2206 29006KT 6SM BR OVC005
     FM211700 28008KT P6SM SCT005 OVC010
     FM212100 26008KT P6SM SCT010
     FM220000 28006KT P6SM OVC006=



000
FTUS46 KPQR 210520
TAFAST
TAF
KAST 210520Z 2106/2206 29006KT 6SM BR OVC005
     FM211700 28008KT P6SM SCT005 OVC010
     FM212100 26008KT P6SM SCT010
     FM220000 28006KT P6SM OVC006=



000
FTUS46 KPQR 210520
TAFAST
TAF
KAST 210520Z 2106/2206 29006KT 6SM BR OVC005
     FM211700 28008KT P6SM SCT005 OVC010
     FM212100 26008KT P6SM SCT010
     FM220000 28006KT P6SM OVC006=



000
FTUS46 KPQR 210520
TAFEUG
TAF
KEUG 210520Z 2106/2206 VRB03KT P6SM SCT060 BKN100
     FM211200 19003KT P6SM BKN020 BKN060
     FM212000 23005KT P6SM VCSH SCT030 BKN120=



000
FTUS46 KPQR 210520
TAFPDX
TAF
KPDX 210520Z 2106/2206 29007KT P6SM FEW060 SCT100
     FM211000 32004KT P6SM OVC015
     FM211800 30003KT P6SM SCT015
     FM212100 31005KT P6SM VCSH SCT050=



000
FTUS46 KPQR 210520
TAFEUG
TAF
KEUG 210520Z 2106/2206 VRB03KT P6SM SCT060 BKN100
     FM211200 19003KT P6SM BKN020 BKN060
     FM212000 23005KT P6SM VCSH SCT030 BKN120=



000
FTUS46 KPQR 210520
TAFSLE
TAF
KSLE 210520Z 2106/2206 19003KT P6SM VCSH SCT080 BKN120
     FM211200 19003KT P6SM BKN020
     FM211900 19003KT P6SM SCT020
     FM212100 23004KT P6SM VCSH BKN080=



000
FTUS46 KPQR 210520
TAFHIO
TAF
KHIO 210520Z 2106/2206 VRB03KT P6SM SCT100
     FM211200 VRB03KT P6SM BKN020
     FM211800 VRB03KT P6SM SCT020
     FM212100 29005KT P6SM VCSH SCT050=



000
FTUS46 KPQR 210520
TAFSLE
TAF
KSLE 210520Z 2106/2206 19003KT P6SM VCSH SCT080 BKN120
     FM211200 19003KT P6SM BKN020
     FM211900 19003KT P6SM SCT020
     FM212100 23004KT P6SM VCSH BKN080=



000
FTUS46 KPQR 210520
TAFTTD
TAF
KTTD 210520Z 2106/2206 VRB03KT P6SM VCSH SCT120
     FM210900 VRB03KT P6SM BKN015
     FM211800 VRB03KT P6SM SCT015
     FM212100 VRB03KT P6SM VCSH SCT050=



000
FTUS46 KPQR 210520
TAFEUG
TAF
KEUG 210520Z 2106/2206 VRB03KT P6SM SCT060 BKN100
     FM211200 19003KT P6SM BKN020 BKN060
     FM212000 23005KT P6SM VCSH SCT030 BKN120=



000
FTUS46 KPQR 210520
TAFHIO
TAF
KHIO 210520Z 2106/2206 VRB03KT P6SM SCT100
     FM211200 VRB03KT P6SM BKN020
     FM211800 VRB03KT P6SM SCT020
     FM212100 29005KT P6SM VCSH SCT050=



000
FTUS46 KPQR 210520
TAFHIO
TAF
KHIO 210520Z 2106/2206 VRB03KT P6SM SCT100
     FM211200 VRB03KT P6SM BKN020
     FM211800 VRB03KT P6SM SCT020
     FM212100 29005KT P6SM VCSH SCT050=



000
FTUS46 KPQR 210520
TAFTTD
TAF
KTTD 210520Z 2106/2206 VRB03KT P6SM VCSH SCT120
     FM210900 VRB03KT P6SM BKN015
     FM211800 VRB03KT P6SM SCT015
     FM212100 VRB03KT P6SM VCSH SCT050=



000
FTUS46 KPQR 210520
TAFTTD
TAF
KTTD 210520Z 2106/2206 VRB03KT P6SM VCSH SCT120
     FM210900 VRB03KT P6SM BKN015
     FM211800 VRB03KT P6SM SCT015
     FM212100 VRB03KT P6SM VCSH SCT050=



000
FTUS46 KPQR 210520
TAFONP
TAF
KONP 210520Z 2106/2206 35003KT 4SM BR OVC003
     FM210900 33003KT 5SM BR OVC005
     FM211800 28008KT P6SM SCT005 OVC010
     FM212100 30008KT P6SM SCT012
     FM220000 33006KT P6SM OVC007
     FM220300 35003KT 4SM BR OVC003=



000
FTUS46 KPQR 210520
TAFONP
TAF
KONP 210520Z 2106/2206 35003KT 4SM BR OVC003
     FM210900 33003KT 5SM BR OVC005
     FM211800 28008KT P6SM SCT005 OVC010
     FM212100 30008KT P6SM SCT012
     FM220000 33006KT P6SM OVC007
     FM220300 35003KT 4SM BR OVC003=



000
FTUS46 KPQR 210520
TAFPDX
TAF
KPDX 210520Z 2106/2206 29007KT P6SM FEW060 SCT100
     FM211000 32004KT P6SM OVC015
     FM211800 30003KT P6SM SCT015
     FM212100 31005KT P6SM VCSH SCT050=



000
FTUS46 KPQR 210520
TAFSLE
TAF
KSLE 210520Z 2106/2206 19003KT P6SM VCSH SCT080 BKN120
     FM211200 19003KT P6SM BKN020
     FM211900 19003KT P6SM SCT020
     FM212100 23004KT P6SM VCSH BKN080=



000
FTUS46 KPQR 210520
TAFONP
TAF
KONP 210520Z 2106/2206 35003KT 4SM BR OVC003
     FM210900 33003KT 5SM BR OVC005
     FM211800 28008KT P6SM SCT005 OVC010
     FM212100 30008KT P6SM SCT012
     FM220000 33006KT P6SM OVC007
     FM220300 35003KT 4SM BR OVC003=



000
FTUS46 KPQR 210520
TAFEUG
TAF
KEUG 210520Z 2106/2206 VRB03KT P6SM SCT060 BKN100
     FM211200 19003KT P6SM BKN020 BKN060
     FM212000 23005KT P6SM VCSH SCT030 BKN120=



000
FTUS46 KPQR 210520
TAFPDX
TAF
KPDX 210520Z 2106/2206 29007KT P6SM FEW060 SCT100
     FM211000 32004KT P6SM OVC015
     FM211800 30003KT P6SM SCT015
     FM212100 31005KT P6SM VCSH SCT050=



000
FTUS46 KPQR 210226 AAA
TAFONP
TAF AMD
KONP 210226Z 2102/2124 33012G18KT 5SM BR OVC003
     FM210400 33007KT P6SM SCT003 OVC007
     FM210800 36003KT 6SM BR OVC007
     FM211800 28008KT P6SM SCT007 OVC012
     FM212100 29008KT P6SM SCT012=



000
FTUS46 KPQR 210226 AAA
TAFONP
TAF AMD
KONP 210226Z 2102/2124 33012G18KT 5SM BR OVC003
     FM210400 33007KT P6SM SCT003 OVC007
     FM210800 36003KT 6SM BR OVC007
     FM211800 28008KT P6SM SCT007 OVC012
     FM212100 29008KT P6SM SCT012=



000
FTUS46 KPQR 210226 AAA
TAFONP
TAF AMD
KONP 210226Z 2102/2124 33012G18KT 5SM BR OVC003
     FM210400 33007KT P6SM SCT003 OVC007
     FM210800 36003KT 6SM BR OVC007
     FM211800 28008KT P6SM SCT007 OVC012
     FM212100 29008KT P6SM SCT012=



000
FTUS46 KPQR 210226 AAA
TAFONP
TAF AMD
KONP 210226Z 2102/2124 33012G18KT 5SM BR OVC003
     FM210400 33007KT P6SM SCT003 OVC007
     FM210800 36003KT 6SM BR OVC007
     FM211800 28008KT P6SM SCT007 OVC012
     FM212100 29008KT P6SM SCT012=



000
FTUS46 KPQR 202330
TAFPDX
TAF
KPDX 202330Z 2100/2124 29007KT P6SM VCSH FEW040 SCT120
     FM210900 32004KT P6SM SCT015 BKN025 OVC040
     FM211200 30003KT P6SM BKN015 OVC025
     FM211800 30003KT P6SM SCT015 SCT050=



000
FTUS46 KPQR 202330
TAFSLE
TAF
KSLE 202330Z 2100/2124 34007KT P6SM VCSH SCT120
     FM210900 20004KT P6SM SCT015 BKN025 OVC040
     FM211200 19003KT P6SM BKN015 OVC025
     FM212000 19003KT P6SM SCT020 BKN120=



000
FTUS46 KPQR 202330
TAFAST
TAF
KAST 202330Z 2100/2124 33008KT P6SM SCT012
     FM210200 31007KT P6SM SCT008 OVC012
      TEMPO 2102/2106 BKN008
     FM210600 30005KT 6SM BR OVC008
     FM211800 28008KT P6SM SCT008 OVC012
     FM212100 26008KT P6SM SCT012=



000
FTUS46 KPQR 202330
TAFONP
TAF
KONP 202330Z 2100/2124 33012G18KT P6SM BKN007 OVC012
      TEMPO 2100/2104 SCT007 BKN012
     FM210400 33007KT P6SM BKN007 OVC012
     FM210800 36003KT 6SM BR OVC007
     FM211800 28008KT P6SM SCT007 OVC012
     FM212100 29008KT P6SM SCT012=



000
FTUS46 KPQR 202330
TAFEUG
TAF
KEUG 202330Z 2100/2124 36007KT P6SM FEW030 BKN120
     FM210900 19003KT P6SM SCT015 BKN025 OVC040
     FM212000 23005KT P6SM SCT030 BKN120=



000
FTUS46 KPQR 202330
TAFHIO
TAF
KHIO 202330Z 2100/2124 VRB03KT P6SM SCT120
     FM211200 VRB03KT P6SM SCT015 BKN025 OVC040
     FM211500 VRB03KT P6SM BKN015 OVC025
     FM212000 VRB03KT P6SM SCT015 SCT050=



000
FTUS46 KPQR 202330
TAFPDX
TAF
KPDX 202330Z 2100/2124 29007KT P6SM VCSH FEW040 SCT120
     FM210900 32004KT P6SM SCT015 BKN025 OVC040
     FM211200 30003KT P6SM BKN015 OVC025
     FM211800 30003KT P6SM SCT015 SCT050=



000
FTUS46 KPQR 202330
TAFTTD
TAF
KTTD 202330Z 2100/2124 VRB03KT P6SM VCSH SCT120
     FM210900 VRB03KT P6SM SCT015 BKN025 OVC040
     FM211200 VRB03KT P6SM BKN015 OVC025
     FM211800 VRB03KT P6SM SCT015=



000
FTUS46 KPQR 202330
TAFAST
TAF
KAST 202330Z 2100/2124 33008KT P6SM SCT012
     FM210200 31007KT P6SM SCT008 OVC012
      TEMPO 2102/2106 BKN008
     FM210600 30005KT 6SM BR OVC008
     FM211800 28008KT P6SM SCT008 OVC012
     FM212100 26008KT P6SM SCT012=



000
FTUS46 KPQR 202330
TAFSLE
TAF
KSLE 202330Z 2100/2124 34007KT P6SM VCSH SCT120
     FM210900 20004KT P6SM SCT015 BKN025 OVC040
     FM211200 19003KT P6SM BKN015 OVC025
     FM212000 19003KT P6SM SCT020 BKN120=



000
FTUS46 KPQR 202330
TAFPDX
TAF
KPDX 202330Z 2100/2124 29007KT P6SM VCSH FEW040 SCT120
     FM210900 32004KT P6SM SCT015 BKN025 OVC040
     FM211200 30003KT P6SM BKN015 OVC025
     FM211800 30003KT P6SM SCT015 SCT050=



000
FTUS46 KPQR 202330
TAFEUG
TAF
KEUG 202330Z 2100/2124 36007KT P6SM FEW030 BKN120
     FM210900 19003KT P6SM SCT015 BKN025 OVC040
     FM212000 23005KT P6SM SCT030 BKN120=



000
FTUS46 KPQR 202330
TAFHIO
TAF
KHIO 202330Z 2100/2124 VRB03KT P6SM SCT120
     FM211200 VRB03KT P6SM SCT015 BKN025 OVC040
     FM211500 VRB03KT P6SM BKN015 OVC025
     FM212000 VRB03KT P6SM SCT015 SCT050=



000
FTUS46 KPQR 202330
TAFTTD
TAF
KTTD 202330Z 2100/2124 VRB03KT P6SM VCSH SCT120
     FM210900 VRB03KT P6SM SCT015 BKN025 OVC040
     FM211200 VRB03KT P6SM BKN015 OVC025
     FM211800 VRB03KT P6SM SCT015=



000
FTUS46 KPQR 202330
TAFEUG
TAF
KEUG 202330Z 2100/2124 36007KT P6SM FEW030 BKN120
     FM210900 19003KT P6SM SCT015 BKN025 OVC040
     FM212000 23005KT P6SM SCT030 BKN120=



000
FTUS46 KPQR 202330
TAFONP
TAF
KONP 202330Z 2100/2124 33012G18KT P6SM BKN007 OVC012
      TEMPO 2100/2104 SCT007 BKN012
     FM210400 33007KT P6SM BKN007 OVC012
     FM210800 36003KT 6SM BR OVC007
     FM211800 28008KT P6SM SCT007 OVC012
     FM212100 29008KT P6SM SCT012=



000
FTUS46 KPQR 202330
TAFAST
TAF
KAST 202330Z 2100/2124 33008KT P6SM SCT012
     FM210200 31007KT P6SM SCT008 OVC012
      TEMPO 2102/2106 BKN008
     FM210600 30005KT 6SM BR OVC008
     FM211800 28008KT P6SM SCT008 OVC012
     FM212100 26008KT P6SM SCT012=



000
FTUS46 KPQR 202330
TAFTTD
TAF
KTTD 202330Z 2100/2124 VRB03KT P6SM VCSH SCT120
     FM210900 VRB03KT P6SM SCT015 BKN025 OVC040
     FM211200 VRB03KT P6SM BKN015 OVC025
     FM211800 VRB03KT P6SM SCT015=



000
FTUS46 KPQR 202330
TAFONP
TAF
KONP 202330Z 2100/2124 33012G18KT P6SM BKN007 OVC012
      TEMPO 2100/2104 SCT007 BKN012
     FM210400 33007KT P6SM BKN007 OVC012
     FM210800 36003KT 6SM BR OVC007
     FM211800 28008KT P6SM SCT007 OVC012
     FM212100 29008KT P6SM SCT012=



000
FTUS46 KPQR 202330
TAFHIO
TAF
KHIO 202330Z 2100/2124 VRB03KT P6SM SCT120
     FM211200 VRB03KT P6SM SCT015 BKN025 OVC040
     FM211500 VRB03KT P6SM BKN015 OVC025
     FM212000 VRB03KT P6SM SCT015 SCT050=



000
FTUS46 KPQR 202330
TAFSLE
TAF
KSLE 202330Z 2100/2124 34007KT P6SM VCSH SCT120
     FM210900 20004KT P6SM SCT015 BKN025 OVC040
     FM211200 19003KT P6SM BKN015 OVC025
     FM212000 19003KT P6SM SCT020 BKN120=



000
FTUS46 KPQR 202330
TAFEUG
TAF
KEUG 202330Z 2100/2124 36007KT P6SM FEW030 BKN120
     FM210900 19003KT P6SM SCT015 BKN025 OVC040
     FM212000 23005KT P6SM SCT030 BKN120=



000
FTUS46 KPQR 202330
TAFTTD
TAF
KTTD 202330Z 2100/2124 VRB03KT P6SM VCSH SCT120
     FM210900 VRB03KT P6SM SCT015 BKN025 OVC040
     FM211200 VRB03KT P6SM BKN015 OVC025
     FM211800 VRB03KT P6SM SCT015=



000
FTUS46 KPQR 202330
TAFAST
TAF
KAST 202330Z 2100/2124 33008KT P6SM SCT012
     FM210200 31007KT P6SM SCT008 OVC012
      TEMPO 2102/2106 BKN008
     FM210600 30005KT 6SM BR OVC008
     FM211800 28008KT P6SM SCT008 OVC012
     FM212100 26008KT P6SM SCT012=



000
FTUS46 KPQR 202330
TAFHIO
TAF
KHIO 202330Z 2100/2124 VRB03KT P6SM SCT120
     FM211200 VRB03KT P6SM SCT015 BKN025 OVC040
     FM211500 VRB03KT P6SM BKN015 OVC025
     FM212000 VRB03KT P6SM SCT015 SCT050=



000
FTUS46 KPQR 202330
TAFONP
TAF
KONP 202330Z 2100/2124 33012G18KT P6SM BKN007 OVC012
      TEMPO 2100/2104 SCT007 BKN012
     FM210400 33007KT P6SM BKN007 OVC012
     FM210800 36003KT 6SM BR OVC007
     FM211800 28008KT P6SM SCT007 OVC012
     FM212100 29008KT P6SM SCT012=



000
FTUS46 KPQR 202330
TAFSLE
TAF
KSLE 202330Z 2100/2124 34007KT P6SM VCSH SCT120
     FM210900 20004KT P6SM SCT015 BKN025 OVC040
     FM211200 19003KT P6SM BKN015 OVC025
     FM212000 19003KT P6SM SCT020 BKN120=



000
FTUS46 KPQR 202330
TAFPDX
TAF
KPDX 202330Z 2100/2124 29007KT P6SM VCSH FEW040 SCT120
     FM210900 32004KT P6SM SCT015 BKN025 OVC040
     FM211200 30003KT P6SM BKN015 OVC025
     FM211800 30003KT P6SM SCT015 SCT050=



000
FTUS46 KPQR 202049 AAB
TAFPDX
TAF AMD
KPDX 202049Z 2021/2118 29007KT P6SM VCSH SCT025 BKN040
     FM210900 32004KT P6SM SCT015 BKN025 OVC040
     FM211200 30003KT P6SM BKN015 OVC025=



000
FTUS46 KPQR 202049 AAB
TAFPDX
TAF AMD
KPDX 202049Z 2021/2118 29007KT P6SM VCSH SCT025 BKN040
     FM210900 32004KT P6SM SCT015 BKN025 OVC040
     FM211200 30003KT P6SM BKN015 OVC025=



000
FTUS46 KPQR 201816 AAA
TAFPDX
TAF AMD
KPDX 201816Z 2018/2118 28005KT P6SM SCT015 OVC025
     FM202000 29007KT P6SM VCSH SCT025 BKN040
     FM210900 32004KT P6SM SCT015 BKN025 OVC040
     FM211200 30003KT P6SM BKN015 OVC025=



000
FTUS46 KPQR 201816 AAA
TAFPDX
TAF AMD
KPDX 201816Z 2018/2118 28005KT P6SM SCT015 OVC025
     FM202000 29007KT P6SM VCSH SCT025 BKN040
     FM210900 32004KT P6SM SCT015 BKN025 OVC040
     FM211200 30003KT P6SM BKN015 OVC025=



000
FTUS46 KPQR 201816 AAA
TAFPDX
TAF AMD
KPDX 201816Z 2018/2118 28005KT P6SM SCT015 OVC025
     FM202000 29007KT P6SM VCSH SCT025 BKN040
     FM210900 32004KT P6SM SCT015 BKN025 OVC040
     FM211200 30003KT P6SM BKN015 OVC025=



000
FTUS46 KPQR 201816 AAA
TAFPDX
TAF AMD
KPDX 201816Z 2018/2118 28005KT P6SM SCT015 OVC025
     FM202000 29007KT P6SM VCSH SCT025 BKN040
     FM210900 32004KT P6SM SCT015 BKN025 OVC040
     FM211200 30003KT P6SM BKN015 OVC025=



000
FTUS46 KPQR 201721 CCA
TAFTTD
TAF COR
KTTD 201721Z 2018/2118 VRB03KT P6SM OVC015
     FM201930 30003KT P6SM SCT015 OVC025
     FM202100 30004KT P6SM VCSH SCT025 BKN040
     FM210900 VRB03KT P6SM SCT015 BKN025 OVC040
     FM211200 VRB03KT P6SM BKN015 OVC025=



000
FTUS46 KPQR 201721 CCA
TAFHIO
TAF COR
KHIO 201721Z 2018/2118 VRB03KT P6SM OVC015
     FM201930 30003KT P6SM SCT015 OVC025
     FM202100 30004KT P6SM VCSH SCT025 BKN040
     FM211200 VRB03KT P6SM SCT015 BKN025 OVC040
     FM211500 VRB03KT P6SM BKN015 OVC025=



000
FTUS46 KPQR 201721 CCA
TAFSLE
TAF COR
KSLE 201721Z 2018/2118 36005KT P6SM OVC015
     FM201930 35005KT P6SM SCT015 OVC025
     FM202100 34007KT P6SM VCSH SCT025 BKN040
     FM210900 20004KT P6SM SCT015 BKN025 OVC040
     FM211200 19003KT P6SM BKN015 OVC025=



000
FTUS46 KPQR 201721 CCA
TAFSLE
TAF COR
KSLE 201721Z 2018/2118 36005KT P6SM OVC015
     FM201930 35005KT P6SM SCT015 OVC025
     FM202100 34007KT P6SM VCSH SCT025 BKN040
     FM210900 20004KT P6SM SCT015 BKN025 OVC040
     FM211200 19003KT P6SM BKN015 OVC025=



000
FTUS46 KPQR 201721 CCA
TAFTTD
TAF COR
KTTD 201721Z 2018/2118 VRB03KT P6SM OVC015
     FM201930 30003KT P6SM SCT015 OVC025
     FM202100 30004KT P6SM VCSH SCT025 BKN040
     FM210900 VRB03KT P6SM SCT015 BKN025 OVC040
     FM211200 VRB03KT P6SM BKN015 OVC025=



000
FTUS46 KPQR 201721 CCA
TAFTTD
TAF COR
KTTD 201721Z 2018/2118 VRB03KT P6SM OVC015
     FM201930 30003KT P6SM SCT015 OVC025
     FM202100 30004KT P6SM VCSH SCT025 BKN040
     FM210900 VRB03KT P6SM SCT015 BKN025 OVC040
     FM211200 VRB03KT P6SM BKN015 OVC025=



000
FTUS46 KPQR 201721 CCA
TAFHIO
TAF COR
KHIO 201721Z 2018/2118 VRB03KT P6SM OVC015
     FM201930 30003KT P6SM SCT015 OVC025
     FM202100 30004KT P6SM VCSH SCT025 BKN040
     FM211200 VRB03KT P6SM SCT015 BKN025 OVC040
     FM211500 VRB03KT P6SM BKN015 OVC025=



000
FTUS46 KPQR 201721 CCA
TAFHIO
TAF COR
KHIO 201721Z 2018/2118 VRB03KT P6SM OVC015
     FM201930 30003KT P6SM SCT015 OVC025
     FM202100 30004KT P6SM VCSH SCT025 BKN040
     FM211200 VRB03KT P6SM SCT015 BKN025 OVC040
     FM211500 VRB03KT P6SM BKN015 OVC025=



000
FTUS46 KPQR 201721 CCA
TAFTTD
TAF COR
KTTD 201721Z 2018/2118 VRB03KT P6SM OVC015
     FM201930 30003KT P6SM SCT015 OVC025
     FM202100 30004KT P6SM VCSH SCT025 BKN040
     FM210900 VRB03KT P6SM SCT015 BKN025 OVC040
     FM211200 VRB03KT P6SM BKN015 OVC025=



000
FTUS46 KPQR 201721 CCA
TAFSLE
TAF COR
KSLE 201721Z 2018/2118 36005KT P6SM OVC015
     FM201930 35005KT P6SM SCT015 OVC025
     FM202100 34007KT P6SM VCSH SCT025 BKN040
     FM210900 20004KT P6SM SCT015 BKN025 OVC040
     FM211200 19003KT P6SM BKN015 OVC025=



000
FTUS46 KPQR 201721 CCA
TAFSLE
TAF COR
KSLE 201721Z 2018/2118 36005KT P6SM OVC015
     FM201930 35005KT P6SM SCT015 OVC025
     FM202100 34007KT P6SM VCSH SCT025 BKN040
     FM210900 20004KT P6SM SCT015 BKN025 OVC040
     FM211200 19003KT P6SM BKN015 OVC025=



000
FTUS46 KPQR 201720
TAFPDX
TAF
KPDX 201720Z 2018/2118 30005KT P6SM OVC015
     FM202000 30005KT P6SM SCT015 OVC025
     FM202200 31007KT P6SM VCSH SCT025 BKN040
     FM210900 32004KT P6SM SCT015 BKN025 OVC040
     FM211200 30003KT P6SM BKN015 OVC025=



000
FTUS46 KPQR 201720
TAFAST
TAF
KAST 201720Z 2018/2118 33005KT 6SM BR BKN008 OVC015
     FM202000 33008KT P6SM SCT008 OVC015
     FM210300 31007KT P6SM BKN008 OVC015
     FM210600 31005KT 4SM BR OVC008=



000
FTUS46 KPQR 201720
TAFHIO
TAF
KHIO 201720Z 2018/2118 VRB03KT P6SM OVC015
     FM202000 30003KT P6SM SCT015 OVC025
     FM202200 30004KT P6SM VCSH SCT025 BKN040
     FM211200 VRB03KT P6SM SCT015 BKN025 OVC040
     FM211500 VRB03KT P6SM BKN015 OVC025=



000
FTUS46 KPQR 201720
TAFEUG
TAF
KEUG 201720Z 2018/2118 36005KT P6SM BKN015 OVC030
     FM201930 36006KT P6SM SCT015 BKN030 OVC040
     FM202100 36007KT P6SM VCSH SCT025 BKN040
     FM210900 19003KT P6SM SCT015 BKN025 OVC040=



000
FTUS46 KPQR 201720
TAFAST
TAF
KAST 201720Z 2018/2118 33005KT 6SM BR BKN008 OVC015
     FM202000 33008KT P6SM SCT008 OVC015
     FM210300 31007KT P6SM BKN008 OVC015
     FM210600 31005KT 4SM BR OVC008=



000
FTUS46 KPQR 201720
TAFEUG
TAF
KEUG 201720Z 2018/2118 36005KT P6SM BKN015 OVC030
     FM201930 36006KT P6SM SCT015 BKN030 OVC040
     FM202100 36007KT P6SM VCSH SCT025 BKN040
     FM210900 19003KT P6SM SCT015 BKN025 OVC040=



000
FTUS46 KPQR 201720 CCA
TAFPDX
TAF COR
KPDX 201720Z 2018/2118 30005KT P6SM OVC015
     FM201930 30005KT P6SM SCT015 OVC025
     FM202100 31007KT P6SM VCSH SCT025 BKN040
     FM210900 32004KT P6SM SCT015 BKN025 OVC040
     FM211200 30003KT P6SM BKN015 OVC025=



000
FTUS46 KPQR 201720
TAFPDX
TAF
KPDX 201720Z 2018/2118 30005KT P6SM OVC015
     FM202000 30005KT P6SM SCT015 OVC025
     FM202200 31007KT P6SM VCSH SCT025 BKN040
     FM210900 32004KT P6SM SCT015 BKN025 OVC040
     FM211200 30003KT P6SM BKN015 OVC025=



000
FTUS46 KPQR 201720
TAFSLE
TAF
KSLE 201720Z 2018/2118 36005KT P6SM OVC015
     FM202000 35005KT P6SM SCT015 OVC025
     FM202200 34007KT P6SM VCSH SCT025 BKN040
     FM210900 20004KT P6SM SCT015 BKN025 OVC040
     FM211200 19003KT P6SM BKN015 OVC025=



000
FTUS46 KPQR 201720
TAFTTD
TAF
KTTD 201720Z 2018/2118 VRB03KT P6SM OVC015
     FM202000 30003KT P6SM SCT015 OVC025
     FM202200 30004KT P6SM VCSH SCT025 BKN040
     FM210900 VRB03KT P6SM SCT015 BKN025 OVC040
     FM211200 VRB03KT P6SM BKN015 OVC025=



000
FTUS46 KPQR 201720
TAFONP
TAF
KONP 201720Z 2018/2118 33008KT 6SM BR OVC008
     FM202100 33010G18KT P6SM SCT008 OVC015
     FM210400 33007KT 6SM BR BKN008 OVC015
     FM210600 36003KT 4SM BR OVC008=



000
FTUS46 KPQR 201720
TAFHIO
TAF
KHIO 201720Z 2018/2118 VRB03KT P6SM OVC015
     FM202000 30003KT P6SM SCT015 OVC025
     FM202200 30004KT P6SM VCSH SCT025 BKN040
     FM211200 VRB03KT P6SM SCT015 BKN025 OVC040
     FM211500 VRB03KT P6SM BKN015 OVC025=



000
FTUS46 KPQR 201720
TAFAST
TAF
KAST 201720Z 2018/2118 33005KT 6SM BR BKN008 OVC015
     FM202000 33008KT P6SM SCT008 OVC015
     FM210300 31007KT P6SM BKN008 OVC015
     FM210600 31005KT 4SM BR OVC008=



000
FTUS46 KPQR 201720
TAFTTD
TAF
KTTD 201720Z 2018/2118 VRB03KT P6SM OVC015
     FM202000 30003KT P6SM SCT015 OVC025
     FM202200 30004KT P6SM VCSH SCT025 BKN040
     FM210900 VRB03KT P6SM SCT015 BKN025 OVC040
     FM211200 VRB03KT P6SM BKN015 OVC025=



000
FTUS46 KPQR 201720
TAFSLE
TAF
KSLE 201720Z 2018/2118 36005KT P6SM OVC015
     FM202000 35005KT P6SM SCT015 OVC025
     FM202200 34007KT P6SM VCSH SCT025 BKN040
     FM210900 20004KT P6SM SCT015 BKN025 OVC040
     FM211200 19003KT P6SM BKN015 OVC025=



000
FTUS46 KPQR 201720
TAFSLE
TAF
KSLE 201720Z 2018/2118 36005KT P6SM OVC015
     FM202000 35005KT P6SM SCT015 OVC025
     FM202200 34007KT P6SM VCSH SCT025 BKN040
     FM210900 20004KT P6SM SCT015 BKN025 OVC040
     FM211200 19003KT P6SM BKN015 OVC025=



000
FTUS46 KPQR 201720
TAFEUG
TAF
KEUG 201720Z 2018/2118 36005KT P6SM BKN015 OVC030
     FM201930 36006KT P6SM SCT015 BKN030 OVC040
     FM202100 36007KT P6SM VCSH SCT025 BKN040
     FM210900 19003KT P6SM SCT015 BKN025 OVC040=



000
FTUS46 KPQR 201720
TAFONP
TAF
KONP 201720Z 2018/2118 33008KT 6SM BR OVC008
     FM202100 33010G18KT P6SM SCT008 OVC015
     FM210400 33007KT 6SM BR BKN008 OVC015
     FM210600 36003KT 4SM BR OVC008=



000
FTUS46 KPQR 201720 CCA
TAFPDX
TAF COR
KPDX 201720Z 2018/2118 30005KT P6SM OVC015
     FM201930 30005KT P6SM SCT015 OVC025
     FM202100 31007KT P6SM VCSH SCT025 BKN040
     FM210900 32004KT P6SM SCT015 BKN025 OVC040
     FM211200 30003KT P6SM BKN015 OVC025=



000
FTUS46 KPQR 201720
TAFTTD
TAF
KTTD 201720Z 2018/2118 VRB03KT P6SM OVC015
     FM202000 30003KT P6SM SCT015 OVC025
     FM202200 30004KT P6SM VCSH SCT025 BKN040
     FM210900 VRB03KT P6SM SCT015 BKN025 OVC040
     FM211200 VRB03KT P6SM BKN015 OVC025=



000
FTUS46 KPQR 201720
TAFEUG
TAF
KEUG 201720Z 2018/2118 36005KT P6SM BKN015 OVC030
     FM201930 36006KT P6SM SCT015 BKN030 OVC040
     FM202100 36007KT P6SM VCSH SCT025 BKN040
     FM210900 19003KT P6SM SCT015 BKN025 OVC040=



000
FTUS46 KPQR 201720
TAFPDX
TAF
KPDX 201720Z 2018/2118 30005KT P6SM OVC015
     FM202000 30005KT P6SM SCT015 OVC025
     FM202200 31007KT P6SM VCSH SCT025 BKN040
     FM210900 32004KT P6SM SCT015 BKN025 OVC040
     FM211200 30003KT P6SM BKN015 OVC025=



000
FTUS46 KPQR 201720 CCA
TAFPDX
TAF COR
KPDX 201720Z 2018/2118 30005KT P6SM OVC015
     FM201930 30005KT P6SM SCT015 OVC025
     FM202100 31007KT P6SM VCSH SCT025 BKN040
     FM210900 32004KT P6SM SCT015 BKN025 OVC040
     FM211200 30003KT P6SM BKN015 OVC025=



000
FTUS46 KPQR 201720 CCA
TAFPDX
TAF COR
KPDX 201720Z 2018/2118 30005KT P6SM OVC015
     FM201930 30005KT P6SM SCT015 OVC025
     FM202100 31007KT P6SM VCSH SCT025 BKN040
     FM210900 32004KT P6SM SCT015 BKN025 OVC040
     FM211200 30003KT P6SM BKN015 OVC025=



000
FTUS46 KPQR 201720
TAFHIO
TAF
KHIO 201720Z 2018/2118 VRB03KT P6SM OVC015
     FM202000 30003KT P6SM SCT015 OVC025
     FM202200 30004KT P6SM VCSH SCT025 BKN040
     FM211200 VRB03KT P6SM SCT015 BKN025 OVC040
     FM211500 VRB03KT P6SM BKN015 OVC025=



000
FTUS46 KPQR 201720
TAFONP
TAF
KONP 201720Z 2018/2118 33008KT 6SM BR OVC008
     FM202100 33010G18KT P6SM SCT008 OVC015
     FM210400 33007KT 6SM BR BKN008 OVC015
     FM210600 36003KT 4SM BR OVC008=



000
FTUS46 KPQR 201601 AAB
TAFTTD
TAF AMD
KTTD 201601Z 2016/2112 32005KT P6SM SCT008 BKN012 OVC025
     FM201800 VRB03KT P6SM BKN015
     FM202100 VRB04KT P6SM VCSH FEW015 SCT025 BKN040
     FM210600 00000KT P6SM OVC050
     FM210900 26001KT P6SM OVC025=



000
FTUS46 KPQR 201506 AAA
TAFPDX
TAF AMD
KPDX 201506Z 2015/2112 32005KT P6SM SCT008 BKN015 OVC025
     FM201700 30005KT P6SM BKN015
     FM202000 34006KT P6SM VCSH FEW015 BKN025
     FM202200 34006KT P6SM FEW015 SCT025 BKN040
     FM210600 32004KT P6SM OVC025=



000
FTUS46 KPQR 201506 AAA
TAFPDX
TAF AMD
KPDX 201506Z 2015/2112 32005KT P6SM SCT008 BKN015 OVC025
     FM201700 30005KT P6SM BKN015
     FM202000 34006KT P6SM VCSH FEW015 BKN025
     FM202200 34006KT P6SM FEW015 SCT025 BKN040
     FM210600 32004KT P6SM OVC025=



    US Dept of Commerce
    National Oceanic and Atmospheric Administration
    National Weather Service
    1325 East West Highway
    Silver Spring, MD 20910
    Page Author: NWS Internet Services Team
Disclaimer
Information Quality
Credits
Glossary
Privacy Policy
Freedom of Information Act (FOIA)
About Us
Career Opportunities